<?xml version="1.0" encoding="UTF-8" standalone="no" ?>
<gpx xmlns="http://www.topografix.com/GPX/1/1" xmlns:xsi="http://www.w3.org/2001/XMLSchema-instance" xsi:schemaLocation="http://www.topografix.com/GPX/1/1 http://www.topografix.com/GPX/1/1/gpx.xsd" version="1.1" creator="VisuGPX - https://www.visugpx.com">
  <metadata>
    <name>VTT - Venelles</name>
    <desc><![CDATA[Aucune difficulté]]></desc>
  </metadata>
  <trk>
    <name><![CDATA[VTT - Venelles]]></name>
    <trkseg>
      <trkpt lat="43.60048" lon="5.48697">
        <ele>364</ele>
        <time>2012-12-16T08:39:14.000Z</time>
      </trkpt>
      <trkpt lat="43.60076" lon="5.48733">
        <ele>364</ele>
        <time>2012-12-16T08:40:40.000Z</time>
      </trkpt>
      <trkpt lat="43.6007" lon="5.48795">
        <ele>365.20001220703</ele>
        <time>2012-12-16T08:40:58.000Z</time>
      </trkpt>
      <trkpt lat="43.60043" lon="5.48849">
        <ele>366.39999389648</ele>
        <time>2012-12-16T08:41:16.000Z</time>
      </trkpt>
      <trkpt lat="43.60021" lon="5.48904">
        <ele>367.39999389648</ele>
        <time>2012-12-16T08:41:33.000Z</time>
      </trkpt>
      <trkpt lat="43.60001" lon="5.48963">
        <ele>369.39999389648</ele>
        <time>2012-12-16T08:41:49.000Z</time>
      </trkpt>
      <trkpt lat="43.59979" lon="5.49023">
        <ele>370.39999389648</ele>
        <time>2012-12-16T08:42:05.000Z</time>
      </trkpt>
      <trkpt lat="43.59944" lon="5.49059">
        <ele>372</ele>
        <time>2012-12-16T08:42:21.000Z</time>
      </trkpt>
      <trkpt lat="43.59899" lon="5.49061">
        <ele>373</ele>
        <time>2012-12-16T08:42:36.000Z</time>
      </trkpt>
      <trkpt lat="43.59857" lon="5.49035">
        <ele>371.79998779297</ele>
        <time>2012-12-16T08:42:50.000Z</time>
      </trkpt>
      <trkpt lat="43.5981" lon="5.49025">
        <ele>371.60000610352</ele>
        <time>2012-12-16T08:43:05.000Z</time>
      </trkpt>
      <trkpt lat="43.59771" lon="5.48995">
        <ele>370.79998779297</ele>
        <time>2012-12-16T08:43:35.000Z</time>
      </trkpt>
      <trkpt lat="43.59738" lon="5.48945">
        <ele>370</ele>
        <time>2012-12-16T08:44:11.000Z</time>
      </trkpt>
      <trkpt lat="43.59693" lon="5.4896">
        <ele>369</ele>
        <time>2012-12-16T08:44:31.000Z</time>
      </trkpt>
      <trkpt lat="43.59652" lon="5.48993">
        <ele>369</ele>
        <time>2012-12-16T08:44:52.000Z</time>
      </trkpt>
      <trkpt lat="43.59619" lon="5.49038">
        <ele>373.79998779297</ele>
        <time>2012-12-16T08:45:07.000Z</time>
      </trkpt>
      <trkpt lat="43.59591" lon="5.49078">
        <ele>377.60000610352</ele>
        <time>2012-12-16T08:45:23.000Z</time>
      </trkpt>
      <trkpt lat="43.59567" lon="5.49132">
        <ele>382.20001220703</ele>
        <time>2012-12-16T08:45:38.000Z</time>
      </trkpt>
      <trkpt lat="43.59537" lon="5.49183">
        <ele>386.20001220703</ele>
        <time>2012-12-16T08:45:53.000Z</time>
      </trkpt>
      <trkpt lat="43.59498" lon="5.49219">
        <ele>386.39999389648</ele>
        <time>2012-12-16T08:46:08.000Z</time>
      </trkpt>
      <trkpt lat="43.59465" lon="5.49267">
        <ele>384.60000610352</ele>
        <time>2012-12-16T08:46:18.000Z</time>
      </trkpt>
      <trkpt lat="43.59444" lon="5.49325">
        <ele>383.79998779297</ele>
        <time>2012-12-16T08:46:28.000Z</time>
      </trkpt>
      <trkpt lat="43.59426" lon="5.49384">
        <ele>384.79998779297</ele>
        <time>2012-12-16T08:46:40.000Z</time>
      </trkpt>
      <trkpt lat="43.59411" lon="5.49444">
        <ele>386.39999389648</ele>
        <time>2012-12-16T08:46:53.000Z</time>
      </trkpt>
      <trkpt lat="43.59388" lon="5.495">
        <ele>386.20001220703</ele>
        <time>2012-12-16T08:47:04.000Z</time>
      </trkpt>
      <trkpt lat="43.59355" lon="5.49547">
        <ele>383.60000610352</ele>
        <time>2012-12-16T08:47:14.000Z</time>
      </trkpt>
      <trkpt lat="43.5932" lon="5.49594">
        <ele>380.60000610352</ele>
        <time>2012-12-16T08:47:22.000Z</time>
      </trkpt>
      <trkpt lat="43.59291" lon="5.4965">
        <ele>377.79998779297</ele>
        <time>2012-12-16T08:47:29.000Z</time>
      </trkpt>
      <trkpt lat="43.59277" lon="5.49719">
        <ele>374.60000610352</ele>
        <time>2012-12-16T08:47:35.000Z</time>
      </trkpt>
      <trkpt lat="43.59265" lon="5.49785">
        <ele>371</ele>
        <time>2012-12-16T08:47:40.000Z</time>
      </trkpt>
      <trkpt lat="43.59262" lon="5.49851">
        <ele>369.39999389648</ele>
        <time>2012-12-16T08:47:45.000Z</time>
      </trkpt>
      <trkpt lat="43.59273" lon="5.49912">
        <ele>370</ele>
        <time>2012-12-16T08:47:51.000Z</time>
      </trkpt>
      <trkpt lat="43.59271" lon="5.49977">
        <ele>371</ele>
        <time>2012-12-16T08:47:59.000Z</time>
      </trkpt>
      <trkpt lat="43.59262" lon="5.50033">
        <ele>370</ele>
        <time>2012-12-16T08:48:08.000Z</time>
      </trkpt>
      <trkpt lat="43.59214" lon="5.50029">
        <ele>366.20001220703</ele>
        <time>2012-12-16T08:48:15.000Z</time>
      </trkpt>
      <trkpt lat="43.59167" lon="5.50028">
        <ele>363</ele>
        <time>2012-12-16T08:48:21.000Z</time>
      </trkpt>
      <trkpt lat="43.59117" lon="5.50025">
        <ele>363</ele>
        <time>2012-12-16T08:48:28.000Z</time>
      </trkpt>
      <trkpt lat="43.5907" lon="5.50011">
        <ele>362.20001220703</ele>
        <time>2012-12-16T08:48:36.000Z</time>
      </trkpt>
      <trkpt lat="43.59029" lon="5.49986">
        <ele>360.79998779297</ele>
        <time>2012-12-16T08:48:43.000Z</time>
      </trkpt>
      <trkpt lat="43.58979" lon="5.49973">
        <ele>359</ele>
        <time>2012-12-16T08:48:51.000Z</time>
      </trkpt>
      <trkpt lat="43.58931" lon="5.4998">
        <ele>357.20001220703</ele>
        <time>2012-12-16T08:48:58.000Z</time>
      </trkpt>
      <trkpt lat="43.58886" lon="5.49959">
        <ele>354.39999389648</ele>
        <time>2012-12-16T08:49:04.000Z</time>
      </trkpt>
      <trkpt lat="43.58845" lon="5.49913">
        <ele>350.79998779297</ele>
        <time>2012-12-16T08:49:10.000Z</time>
      </trkpt>
      <trkpt lat="43.58802" lon="5.49871">
        <ele>346.20001220703</ele>
        <time>2012-12-16T08:49:16.000Z</time>
      </trkpt>
      <trkpt lat="43.58758" lon="5.49889">
        <ele>346.20001220703</ele>
        <time>2012-12-16T08:49:22.000Z</time>
      </trkpt>
      <trkpt lat="43.58713" lon="5.49915">
        <ele>344.79998779297</ele>
        <time>2012-12-16T08:49:29.000Z</time>
      </trkpt>
      <trkpt lat="43.58664" lon="5.49939">
        <ele>341.79998779297</ele>
        <time>2012-12-16T08:49:36.000Z</time>
      </trkpt>
      <trkpt lat="43.58618" lon="5.49958">
        <ele>338.79998779297</ele>
        <time>2012-12-16T08:49:43.000Z</time>
      </trkpt>
      <trkpt lat="43.58595" lon="5.50003">
        <ele>338</ele>
        <time>2012-12-16T08:49:53.000Z</time>
      </trkpt>
      <trkpt lat="43.58551" lon="5.50019">
        <ele>338.20001220703</ele>
        <time>2012-12-16T08:50:02.000Z</time>
      </trkpt>
      <trkpt lat="43.58528" lon="5.50071">
        <ele>342.20001220703</ele>
        <time>2012-12-16T08:50:14.000Z</time>
      </trkpt>
      <trkpt lat="43.58514" lon="5.50131">
        <ele>344.39999389648</ele>
        <time>2012-12-16T08:50:28.000Z</time>
      </trkpt>
      <trkpt lat="43.58485" lon="5.50183">
        <ele>345</ele>
        <time>2012-12-16T08:50:41.000Z</time>
      </trkpt>
      <trkpt lat="43.58445" lon="5.50219">
        <ele>343.60000610352</ele>
        <time>2012-12-16T08:50:53.000Z</time>
      </trkpt>
      <trkpt lat="43.58403" lon="5.50243">
        <ele>343.20001220703</ele>
        <time>2012-12-16T08:51:04.000Z</time>
      </trkpt>
      <trkpt lat="43.58357" lon="5.50251">
        <ele>342.79998779297</ele>
        <time>2012-12-16T08:51:13.000Z</time>
      </trkpt>
      <trkpt lat="43.58373" lon="5.50282">
        <ele>342.79998779297</ele>
        <time>2012-12-16T08:51:27.000Z</time>
      </trkpt>
      <trkpt lat="43.58413" lon="5.50312">
        <ele>342.79998779297</ele>
        <time>2012-12-16T08:51:36.000Z</time>
      </trkpt>
      <trkpt lat="43.58455" lon="5.50335">
        <ele>341.60000610352</ele>
        <time>2012-12-16T08:51:45.000Z</time>
      </trkpt>
      <trkpt lat="43.58479" lon="5.50381">
        <ele>341.60000610352</ele>
        <time>2012-12-16T08:51:56.000Z</time>
      </trkpt>
      <trkpt lat="43.58478" lon="5.50445">
        <ele>342</ele>
        <time>2012-12-16T08:52:05.000Z</time>
      </trkpt>
      <trkpt lat="43.58466" lon="5.50503">
        <ele>342</ele>
        <time>2012-12-16T08:52:15.000Z</time>
      </trkpt>
      <trkpt lat="43.5842" lon="5.50523">
        <ele>346</ele>
        <time>2012-12-16T08:52:32.000Z</time>
      </trkpt>
      <trkpt lat="43.58375" lon="5.50544">
        <ele>351.20001220703</ele>
        <time>2012-12-16T08:52:51.000Z</time>
      </trkpt>
      <trkpt lat="43.58332" lon="5.50567">
        <ele>356.39999389648</ele>
        <time>2012-12-16T08:53:12.000Z</time>
      </trkpt>
      <trkpt lat="43.58309" lon="5.50517">
        <ele>358.20001220703</ele>
        <time>2012-12-16T08:53:34.000Z</time>
      </trkpt>
      <trkpt lat="43.58268" lon="5.50526">
        <ele>359.60000610352</ele>
        <time>2012-12-16T08:53:56.000Z</time>
      </trkpt>
      <trkpt lat="43.58231" lon="5.50569">
        <ele>361</ele>
        <time>2012-12-16T08:54:14.000Z</time>
      </trkpt>
      <trkpt lat="43.58193" lon="5.50617">
        <ele>360.79998779297</ele>
        <time>2012-12-16T08:54:30.000Z</time>
      </trkpt>
      <trkpt lat="43.58168" lon="5.5067">
        <ele>364</ele>
        <time>2012-12-16T08:54:44.000Z</time>
      </trkpt>
      <trkpt lat="43.58142" lon="5.50724">
        <ele>365.79998779297</ele>
        <time>2012-12-16T08:54:58.000Z</time>
      </trkpt>
      <trkpt lat="43.58118" lon="5.50778">
        <ele>369.39999389648</ele>
        <time>2012-12-16T08:55:14.000Z</time>
      </trkpt>
      <trkpt lat="43.58097" lon="5.50835">
        <ele>373.60000610352</ele>
        <time>2012-12-16T08:55:30.000Z</time>
      </trkpt>
      <trkpt lat="43.58078" lon="5.50895">
        <ele>378</ele>
        <time>2012-12-16T08:55:48.000Z</time>
      </trkpt>
      <trkpt lat="43.58057" lon="5.50956">
        <ele>380.20001220703</ele>
        <time>2012-12-16T08:56:06.000Z</time>
      </trkpt>
      <trkpt lat="43.58013" lon="5.50979">
        <ele>385.20001220703</ele>
        <time>2012-12-16T08:56:23.000Z</time>
      </trkpt>
      <trkpt lat="43.57974" lon="5.51014">
        <ele>389.79998779297</ele>
        <time>2012-12-16T08:56:45.000Z</time>
      </trkpt>
      <trkpt lat="43.57933" lon="5.51052">
        <ele>395</ele>
        <time>2012-12-16T08:57:08.000Z</time>
      </trkpt>
      <trkpt lat="43.57893" lon="5.51088">
        <ele>397.39999389648</ele>
        <time>2012-12-16T08:57:27.000Z</time>
      </trkpt>
      <trkpt lat="43.57861" lon="5.51142">
        <ele>394</ele>
        <time>2012-12-16T08:57:43.000Z</time>
      </trkpt>
      <trkpt lat="43.5784" lon="5.51201">
        <ele>392.39999389648</ele>
        <time>2012-12-16T08:57:57.000Z</time>
      </trkpt>
      <trkpt lat="43.57816" lon="5.51256">
        <ele>391.20001220703</ele>
        <time>2012-12-16T08:58:11.000Z</time>
      </trkpt>
      <trkpt lat="43.57806" lon="5.51318">
        <ele>394.39999389648</ele>
        <time>2012-12-16T08:58:20.000Z</time>
      </trkpt>
      <trkpt lat="43.57779" lon="5.51369">
        <ele>402.20001220703</ele>
        <time>2012-12-16T08:58:41.000Z</time>
      </trkpt>
      <trkpt lat="43.57747" lon="5.51416">
        <ele>409.20001220703</ele>
        <time>2012-12-16T08:59:02.000Z</time>
      </trkpt>
      <trkpt lat="43.57718" lon="5.51468">
        <ele>415.20001220703</ele>
        <time>2012-12-16T08:59:22.000Z</time>
      </trkpt>
      <trkpt lat="43.57689" lon="5.51521">
        <ele>419.39999389648</ele>
        <time>2012-12-16T08:59:45.000Z</time>
      </trkpt>
      <trkpt lat="43.57681" lon="5.51585">
        <ele>424.39999389648</ele>
        <time>2012-12-16T09:00:10.000Z</time>
      </trkpt>
      <trkpt lat="43.57661" lon="5.51646">
        <ele>428</ele>
        <time>2012-12-16T09:00:34.000Z</time>
      </trkpt>
      <trkpt lat="43.57649" lon="5.51709">
        <ele>434.20001220703</ele>
        <time>2012-12-16T09:00:58.000Z</time>
      </trkpt>
      <trkpt lat="43.57655" lon="5.51773">
        <ele>440</ele>
        <time>2012-12-16T09:01:21.000Z</time>
      </trkpt>
      <trkpt lat="43.5764" lon="5.51834">
        <ele>445.20001220703</ele>
        <time>2012-12-16T09:01:43.000Z</time>
      </trkpt>
      <trkpt lat="43.5761" lon="5.51882">
        <ele>447.79998779297</ele>
        <time>2012-12-16T09:02:04.000Z</time>
      </trkpt>
      <trkpt lat="43.57572" lon="5.51916">
        <ele>451.39999389648</ele>
        <time>2012-12-16T09:02:24.000Z</time>
      </trkpt>
      <trkpt lat="43.57541" lon="5.51963">
        <ele>453.79998779297</ele>
        <time>2012-12-16T09:02:44.000Z</time>
      </trkpt>
      <trkpt lat="43.57513" lon="5.52015">
        <ele>456.79998779297</ele>
        <time>2012-12-16T09:03:02.000Z</time>
      </trkpt>
      <trkpt lat="43.57496" lon="5.52076">
        <ele>458.60000610352</ele>
        <time>2012-12-16T09:03:19.000Z</time>
      </trkpt>
      <trkpt lat="43.57475" lon="5.52134">
        <ele>458</ele>
        <time>2012-12-16T09:03:34.000Z</time>
      </trkpt>
      <trkpt lat="43.57474" lon="5.52198">
        <ele>459.20001220703</ele>
        <time>2012-12-16T09:03:48.000Z</time>
      </trkpt>
      <trkpt lat="43.57471" lon="5.52261">
        <ele>460.20001220703</ele>
        <time>2012-12-16T09:04:00.000Z</time>
      </trkpt>
      <trkpt lat="43.57455" lon="5.52321">
        <ele>460.20001220703</ele>
        <time>2012-12-16T09:04:11.000Z</time>
      </trkpt>
      <trkpt lat="43.57428" lon="5.52376">
        <ele>460.79998779297</ele>
        <time>2012-12-16T09:04:22.000Z</time>
      </trkpt>
      <trkpt lat="43.57418" lon="5.52442">
        <ele>461.79998779297</ele>
        <time>2012-12-16T09:04:32.000Z</time>
      </trkpt>
      <trkpt lat="43.5741" lon="5.5251">
        <ele>459.39999389648</ele>
        <time>2012-12-16T09:04:40.000Z</time>
      </trkpt>
      <trkpt lat="43.57406" lon="5.52576">
        <ele>459.79998779297</ele>
        <time>2012-12-16T09:04:48.000Z</time>
      </trkpt>
      <trkpt lat="43.574" lon="5.52642">
        <ele>461.79998779297</ele>
        <time>2012-12-16T09:04:57.000Z</time>
      </trkpt>
      <trkpt lat="43.57392" lon="5.5271">
        <ele>460.60000610352</ele>
        <time>2012-12-16T09:05:06.000Z</time>
      </trkpt>
      <trkpt lat="43.57381" lon="5.52774">
        <ele>460.20001220703</ele>
        <time>2012-12-16T09:05:14.000Z</time>
      </trkpt>
      <trkpt lat="43.57377" lon="5.5284">
        <ele>462.79998779297</ele>
        <time>2012-12-16T09:05:23.000Z</time>
      </trkpt>
      <trkpt lat="43.57375" lon="5.52902">
        <ele>467</ele>
        <time>2012-12-16T09:05:35.000Z</time>
      </trkpt>
      <trkpt lat="43.57375" lon="5.52966">
        <ele>471.20001220703</ele>
        <time>2012-12-16T09:05:48.000Z</time>
      </trkpt>
      <trkpt lat="43.57377" lon="5.53028">
        <ele>474.79998779297</ele>
        <time>2012-12-16T09:06:01.000Z</time>
      </trkpt>
      <trkpt lat="43.5738" lon="5.53093">
        <ele>477.60000610352</ele>
        <time>2012-12-16T09:06:14.000Z</time>
      </trkpt>
      <trkpt lat="43.5738" lon="5.53156">
        <ele>477.20001220703</ele>
        <time>2012-12-16T09:06:27.000Z</time>
      </trkpt>
      <trkpt lat="43.57386" lon="5.53223">
        <ele>477</ele>
        <time>2012-12-16T09:06:39.000Z</time>
      </trkpt>
      <trkpt lat="43.5739" lon="5.53289">
        <ele>478.39999389648</ele>
        <time>2012-12-16T09:06:51.000Z</time>
      </trkpt>
      <trkpt lat="43.57375" lon="5.53351">
        <ele>478.79998779297</ele>
        <time>2012-12-16T09:07:02.000Z</time>
      </trkpt>
      <trkpt lat="43.57352" lon="5.53409">
        <ele>478.79998779297</ele>
        <time>2012-12-16T09:07:13.000Z</time>
      </trkpt>
      <trkpt lat="43.57326" lon="5.53463">
        <ele>479.60000610352</ele>
        <time>2012-12-16T09:07:24.000Z</time>
      </trkpt>
      <trkpt lat="43.57298" lon="5.53517">
        <ele>481.39999389648</ele>
        <time>2012-12-16T09:07:35.000Z</time>
      </trkpt>
      <trkpt lat="43.57269" lon="5.53565">
        <ele>485</ele>
        <time>2012-12-16T09:07:46.000Z</time>
      </trkpt>
      <trkpt lat="43.57244" lon="5.53623">
        <ele>489.39999389648</ele>
        <time>2012-12-16T09:07:57.000Z</time>
      </trkpt>
      <trkpt lat="43.57221" lon="5.53676">
        <ele>490.79998779297</ele>
        <time>2012-12-16T09:08:11.000Z</time>
      </trkpt>
      <trkpt lat="43.57192" lon="5.53714">
        <ele>491.60000610352</ele>
        <time>2012-12-16T09:13:52.000Z</time>
      </trkpt>
      <trkpt lat="43.57165" lon="5.53766">
        <ele>494</ele>
        <time>2012-12-16T09:14:09.000Z</time>
      </trkpt>
      <trkpt lat="43.57142" lon="5.53821">
        <ele>494.79998779297</ele>
        <time>2012-12-16T09:14:25.000Z</time>
      </trkpt>
      <trkpt lat="43.57119" lon="5.53879">
        <ele>495.20001220703</ele>
        <time>2012-12-16T09:14:41.000Z</time>
      </trkpt>
      <trkpt lat="43.57092" lon="5.5393">
        <ele>497.20001220703</ele>
        <time>2012-12-16T09:14:57.000Z</time>
      </trkpt>
      <trkpt lat="43.57075" lon="5.53989">
        <ele>498.60000610352</ele>
        <time>2012-12-16T09:15:12.000Z</time>
      </trkpt>
      <trkpt lat="43.57067" lon="5.54055">
        <ele>501.79998779297</ele>
        <time>2012-12-16T09:15:27.000Z</time>
      </trkpt>
      <trkpt lat="43.57061" lon="5.54117">
        <ele>504.79998779297</ele>
        <time>2012-12-16T09:15:39.000Z</time>
      </trkpt>
      <trkpt lat="43.57053" lon="5.54184">
        <ele>506.39999389648</ele>
        <time>2012-12-16T09:15:52.000Z</time>
      </trkpt>
      <trkpt lat="43.57033" lon="5.54244">
        <ele>505.79998779297</ele>
        <time>2012-12-16T09:16:04.000Z</time>
      </trkpt>
      <trkpt lat="43.57008" lon="5.54302">
        <ele>506.79998779297</ele>
        <time>2012-12-16T09:16:16.000Z</time>
      </trkpt>
      <trkpt lat="43.5697" lon="5.54337">
        <ele>507.79998779297</ele>
        <time>2012-12-16T09:16:27.000Z</time>
      </trkpt>
      <trkpt lat="43.56925" lon="5.54353">
        <ele>508</ele>
        <time>2012-12-16T09:16:37.000Z</time>
      </trkpt>
      <trkpt lat="43.56879" lon="5.54358">
        <ele>505.79998779297</ele>
        <time>2012-12-16T09:16:45.000Z</time>
      </trkpt>
      <trkpt lat="43.56835" lon="5.54366">
        <ele>503</ele>
        <time>2012-12-16T09:16:52.000Z</time>
      </trkpt>
      <trkpt lat="43.56787" lon="5.54389">
        <ele>499.79998779297</ele>
        <time>2012-12-16T09:16:59.000Z</time>
      </trkpt>
      <trkpt lat="43.56755" lon="5.54435">
        <ele>498</ele>
        <time>2012-12-16T09:17:05.000Z</time>
      </trkpt>
      <trkpt lat="43.5671" lon="5.54458">
        <ele>494.39999389648</ele>
        <time>2012-12-16T09:17:12.000Z</time>
      </trkpt>
      <trkpt lat="43.56666" lon="5.54471">
        <ele>490.79998779297</ele>
        <time>2012-12-16T09:17:18.000Z</time>
      </trkpt>
      <trkpt lat="43.56615" lon="5.54481">
        <ele>486.79998779297</ele>
        <time>2012-12-16T09:17:25.000Z</time>
      </trkpt>
      <trkpt lat="43.56569" lon="5.54476">
        <ele>485</ele>
        <time>2012-12-16T09:17:33.000Z</time>
      </trkpt>
      <trkpt lat="43.56522" lon="5.54469">
        <ele>486.79998779297</ele>
        <time>2012-12-16T09:17:43.000Z</time>
      </trkpt>
      <trkpt lat="43.56472" lon="5.54465">
        <ele>485.79998779297</ele>
        <time>2012-12-16T09:17:52.000Z</time>
      </trkpt>
      <trkpt lat="43.56424" lon="5.54471">
        <ele>482.79998779297</ele>
        <time>2012-12-16T09:17:59.000Z</time>
      </trkpt>
      <trkpt lat="43.56375" lon="5.54466">
        <ele>480.20001220703</ele>
        <time>2012-12-16T09:18:05.000Z</time>
      </trkpt>
      <trkpt lat="43.5633" lon="5.5446">
        <ele>477.79998779297</ele>
        <time>2012-12-16T09:18:10.000Z</time>
      </trkpt>
      <trkpt lat="43.56279" lon="5.54473">
        <ele>475.20001220703</ele>
        <time>2012-12-16T09:18:16.000Z</time>
      </trkpt>
      <trkpt lat="43.56231" lon="5.54464">
        <ele>472.79998779297</ele>
        <time>2012-12-16T09:18:22.000Z</time>
      </trkpt>
      <trkpt lat="43.56193" lon="5.54429">
        <ele>471.79998779297</ele>
        <time>2012-12-16T09:18:30.000Z</time>
      </trkpt>
      <trkpt lat="43.56165" lon="5.54392">
        <ele>470.79998779297</ele>
        <time>2012-12-16T09:18:53.000Z</time>
      </trkpt>
      <trkpt lat="43.562" lon="5.54436">
        <ele>472</ele>
        <time>2012-12-16T09:19:14.000Z</time>
      </trkpt>
      <trkpt lat="43.56191" lon="5.54422">
        <ele>471.79998779297</ele>
        <time>2012-12-16T09:27:56.000Z</time>
      </trkpt>
      <trkpt lat="43.56157" lon="5.54377">
        <ele>470.60000610352</ele>
        <time>2012-12-16T09:28:06.000Z</time>
      </trkpt>
      <trkpt lat="43.56122" lon="5.5433">
        <ele>469.39999389648</ele>
        <time>2012-12-16T09:28:15.000Z</time>
      </trkpt>
      <trkpt lat="43.56084" lon="5.54288">
        <ele>470</ele>
        <time>2012-12-16T09:28:24.000Z</time>
      </trkpt>
      <trkpt lat="43.56055" lon="5.5424">
        <ele>471.79998779297</ele>
        <time>2012-12-16T09:28:33.000Z</time>
      </trkpt>
      <trkpt lat="43.56031" lon="5.54183">
        <ele>471.79998779297</ele>
        <time>2012-12-16T09:28:43.000Z</time>
      </trkpt>
      <trkpt lat="43.5601" lon="5.54126">
        <ele>470.79998779297</ele>
        <time>2012-12-16T09:28:53.000Z</time>
      </trkpt>
      <trkpt lat="43.5598" lon="5.54072">
        <ele>469.79998779297</ele>
        <time>2012-12-16T09:29:04.000Z</time>
      </trkpt>
      <trkpt lat="43.55946" lon="5.54023">
        <ele>471.39999389648</ele>
        <time>2012-12-16T09:29:14.000Z</time>
      </trkpt>
      <trkpt lat="43.55917" lon="5.5397">
        <ele>473</ele>
        <time>2012-12-16T09:29:24.000Z</time>
      </trkpt>
      <trkpt lat="43.55882" lon="5.53928">
        <ele>474</ele>
        <time>2012-12-16T09:29:34.000Z</time>
      </trkpt>
      <trkpt lat="43.5585" lon="5.53879">
        <ele>473</ele>
        <time>2012-12-16T09:29:43.000Z</time>
      </trkpt>
      <trkpt lat="43.55819" lon="5.5383">
        <ele>470.20001220703</ele>
        <time>2012-12-16T09:29:51.000Z</time>
      </trkpt>
      <trkpt lat="43.55797" lon="5.53774">
        <ele>468.60000610352</ele>
        <time>2012-12-16T09:29:58.000Z</time>
      </trkpt>
      <trkpt lat="43.55785" lon="5.53712">
        <ele>467.20001220703</ele>
        <time>2012-12-16T09:30:05.000Z</time>
      </trkpt>
      <trkpt lat="43.55768" lon="5.53647">
        <ele>465</ele>
        <time>2012-12-16T09:30:12.000Z</time>
      </trkpt>
      <trkpt lat="43.55749" lon="5.53581">
        <ele>462.79998779297</ele>
        <time>2012-12-16T09:30:19.000Z</time>
      </trkpt>
      <trkpt lat="43.55724" lon="5.53521">
        <ele>460</ele>
        <time>2012-12-16T09:30:26.000Z</time>
      </trkpt>
      <trkpt lat="43.55692" lon="5.53476">
        <ele>458.79998779297</ele>
        <time>2012-12-16T09:30:32.000Z</time>
      </trkpt>
      <trkpt lat="43.55644" lon="5.53461">
        <ele>457.60000610352</ele>
        <time>2012-12-16T09:30:38.000Z</time>
      </trkpt>
      <trkpt lat="43.55593" lon="5.53474">
        <ele>455.79998779297</ele>
        <time>2012-12-16T09:30:44.000Z</time>
      </trkpt>
      <trkpt lat="43.55544" lon="5.53461">
        <ele>451</ele>
        <time>2012-12-16T09:30:50.000Z</time>
      </trkpt>
      <trkpt lat="43.55526" lon="5.53399">
        <ele>450.20001220703</ele>
        <time>2012-12-16T09:30:56.000Z</time>
      </trkpt>
      <trkpt lat="43.55514" lon="5.53339">
        <ele>450</ele>
        <time>2012-12-16T09:31:03.000Z</time>
      </trkpt>
      <trkpt lat="43.55486" lon="5.53288">
        <ele>451.20001220703</ele>
        <time>2012-12-16T09:31:15.000Z</time>
      </trkpt>
      <trkpt lat="43.55481" lon="5.53221">
        <ele>453.60000610352</ele>
        <time>2012-12-16T09:31:29.000Z</time>
      </trkpt>
      <trkpt lat="43.55481" lon="5.53148">
        <ele>454</ele>
        <time>2012-12-16T09:31:48.000Z</time>
      </trkpt>
      <trkpt lat="43.5548" lon="5.53082">
        <ele>453</ele>
        <time>2012-12-16T09:31:59.000Z</time>
      </trkpt>
      <trkpt lat="43.55472" lon="5.53019">
        <ele>454</ele>
        <time>2012-12-16T09:32:10.000Z</time>
      </trkpt>
      <trkpt lat="43.55461" lon="5.5295">
        <ele>453.39999389648</ele>
        <time>2012-12-16T09:32:24.000Z</time>
      </trkpt>
      <trkpt lat="43.55436" lon="5.52889">
        <ele>448.79998779297</ele>
        <time>2012-12-16T09:32:34.000Z</time>
      </trkpt>
      <trkpt lat="43.55431" lon="5.52824">
        <ele>445.60000610352</ele>
        <time>2012-12-16T09:32:41.000Z</time>
      </trkpt>
      <trkpt lat="43.55411" lon="5.52758">
        <ele>441.60000610352</ele>
        <time>2012-12-16T09:32:48.000Z</time>
      </trkpt>
      <trkpt lat="43.55401" lon="5.52691">
        <ele>439.79998779297</ele>
        <time>2012-12-16T09:32:56.000Z</time>
      </trkpt>
      <trkpt lat="43.55386" lon="5.52623">
        <ele>439.20001220703</ele>
        <time>2012-12-16T09:33:05.000Z</time>
      </trkpt>
      <trkpt lat="43.55378" lon="5.5256">
        <ele>439.20001220703</ele>
        <time>2012-12-16T09:33:14.000Z</time>
      </trkpt>
      <trkpt lat="43.55377" lon="5.52493">
        <ele>438.60000610352</ele>
        <time>2012-12-16T09:33:23.000Z</time>
      </trkpt>
      <trkpt lat="43.55348" lon="5.52444">
        <ele>433.79998779297</ele>
        <time>2012-12-16T09:33:31.000Z</time>
      </trkpt>
      <trkpt lat="43.55316" lon="5.52398">
        <ele>430</ele>
        <time>2012-12-16T09:33:39.000Z</time>
      </trkpt>
      <trkpt lat="43.55278" lon="5.52355">
        <ele>427</ele>
        <time>2012-12-16T09:33:48.000Z</time>
      </trkpt>
      <trkpt lat="43.55249" lon="5.52304">
        <ele>423.39999389648</ele>
        <time>2012-12-16T09:33:57.000Z</time>
      </trkpt>
      <trkpt lat="43.55213" lon="5.5226">
        <ele>420.39999389648</ele>
        <time>2012-12-16T09:34:05.000Z</time>
      </trkpt>
      <trkpt lat="43.55182" lon="5.52215">
        <ele>418.60000610352</ele>
        <time>2012-12-16T09:34:13.000Z</time>
      </trkpt>
      <trkpt lat="43.55154" lon="5.52164">
        <ele>418.39999389648</ele>
        <time>2012-12-16T09:34:21.000Z</time>
      </trkpt>
      <trkpt lat="43.55119" lon="5.52132">
        <ele>417.60000610352</ele>
        <time>2012-12-16T09:34:46.000Z</time>
      </trkpt>
      <trkpt lat="43.55072" lon="5.52128">
        <ele>414.60000610352</ele>
        <time>2012-12-16T09:34:59.000Z</time>
      </trkpt>
      <trkpt lat="43.55039" lon="5.52091">
        <ele>410.60000610352</ele>
        <time>2012-12-16T09:35:11.000Z</time>
      </trkpt>
      <trkpt lat="43.55037" lon="5.52029">
        <ele>410.60000610352</ele>
        <time>2012-12-16T09:35:21.000Z</time>
      </trkpt>
      <trkpt lat="43.5503" lon="5.51967">
        <ele>411.20001220703</ele>
        <time>2012-12-16T09:35:30.000Z</time>
      </trkpt>
      <trkpt lat="43.55005" lon="5.51929">
        <ele>409.79998779297</ele>
        <time>2012-12-16T09:35:40.000Z</time>
      </trkpt>
      <trkpt lat="43.54996" lon="5.51862">
        <ele>408.39999389648</ele>
        <time>2012-12-16T09:35:49.000Z</time>
      </trkpt>
      <trkpt lat="43.5497" lon="5.51808">
        <ele>403.79998779297</ele>
        <time>2012-12-16T09:36:14.000Z</time>
      </trkpt>
      <trkpt lat="43.54951" lon="5.51746">
        <ele>400.79998779297</ele>
        <time>2012-12-16T09:36:24.000Z</time>
      </trkpt>
      <trkpt lat="43.54964" lon="5.51691">
        <ele>400.39999389648</ele>
        <time>2012-12-16T09:36:34.000Z</time>
      </trkpt>
      <trkpt lat="43.5501" lon="5.51684">
        <ele>405.60000610352</ele>
        <time>2012-12-16T09:36:48.000Z</time>
      </trkpt>
      <trkpt lat="43.55026" lon="5.51619">
        <ele>402.20001220703</ele>
        <time>2012-12-16T09:36:56.000Z</time>
      </trkpt>
      <trkpt lat="43.55049" lon="5.51563">
        <ele>400.20001220703</ele>
        <time>2012-12-16T09:37:05.000Z</time>
      </trkpt>
      <trkpt lat="43.55036" lon="5.51501">
        <ele>396</ele>
        <time>2012-12-16T09:37:14.000Z</time>
      </trkpt>
      <trkpt lat="43.54997" lon="5.51483">
        <ele>396.79998779297</ele>
        <time>2012-12-16T09:37:23.000Z</time>
      </trkpt>
      <trkpt lat="43.54952" lon="5.51492">
        <ele>395.79998779297</ele>
        <time>2012-12-16T09:37:30.000Z</time>
      </trkpt>
      <trkpt lat="43.54904" lon="5.51492">
        <ele>395</ele>
        <time>2012-12-16T09:37:38.000Z</time>
      </trkpt>
      <trkpt lat="43.5486" lon="5.51465">
        <ele>395.60000610352</ele>
        <time>2012-12-16T09:37:46.000Z</time>
      </trkpt>
      <trkpt lat="43.54856" lon="5.51402">
        <ele>399.20001220703</ele>
        <time>2012-12-16T09:37:54.000Z</time>
      </trkpt>
      <trkpt lat="43.54859" lon="5.51335">
        <ele>402.79998779297</ele>
        <time>2012-12-16T09:38:03.000Z</time>
      </trkpt>
      <trkpt lat="43.54838" lon="5.51285">
        <ele>400.60000610352</ele>
        <time>2012-12-16T09:38:11.000Z</time>
      </trkpt>
      <trkpt lat="43.54818" lon="5.51218">
        <ele>397.60000610352</ele>
        <time>2012-12-16T09:38:20.000Z</time>
      </trkpt>
      <trkpt lat="43.54778" lon="5.51194">
        <ele>395.39999389648</ele>
        <time>2012-12-16T09:38:28.000Z</time>
      </trkpt>
      <trkpt lat="43.54729" lon="5.51205">
        <ele>392.60000610352</ele>
        <time>2012-12-16T09:38:34.000Z</time>
      </trkpt>
      <trkpt lat="43.54681" lon="5.51208">
        <ele>389.79998779297</ele>
        <time>2012-12-16T09:38:40.000Z</time>
      </trkpt>
      <trkpt lat="43.54637" lon="5.51224">
        <ele>387.20001220703</ele>
        <time>2012-12-16T09:38:46.000Z</time>
      </trkpt>
      <trkpt lat="43.54591" lon="5.51241">
        <ele>385</ele>
        <time>2012-12-16T09:38:52.000Z</time>
      </trkpt>
      <trkpt lat="43.54553" lon="5.51279">
        <ele>380.60000610352</ele>
        <time>2012-12-16T09:38:59.000Z</time>
      </trkpt>
      <trkpt lat="43.54551" lon="5.51344">
        <ele>379</ele>
        <time>2012-12-16T09:39:05.000Z</time>
      </trkpt>
      <trkpt lat="43.54534" lon="5.51394">
        <ele>375.60000610352</ele>
        <time>2012-12-16T09:39:14.000Z</time>
      </trkpt>
      <trkpt lat="43.54506" lon="5.51344">
        <ele>374.39999389648</ele>
        <time>2012-12-16T09:39:22.000Z</time>
      </trkpt>
      <trkpt lat="43.5448" lon="5.51292">
        <ele>374</ele>
        <time>2012-12-16T09:39:28.000Z</time>
      </trkpt>
      <trkpt lat="43.54448" lon="5.51234">
        <ele>372.79998779297</ele>
        <time>2012-12-16T09:39:34.000Z</time>
      </trkpt>
      <trkpt lat="43.5442" lon="5.51183">
        <ele>373.39999389648</ele>
        <time>2012-12-16T09:39:40.000Z</time>
      </trkpt>
      <trkpt lat="43.54387" lon="5.5115">
        <ele>372.39999389648</ele>
        <time>2012-12-16T09:39:49.000Z</time>
      </trkpt>
      <trkpt lat="43.54346" lon="5.51171">
        <ele>369.79998779297</ele>
        <time>2012-12-16T09:40:03.000Z</time>
      </trkpt>
      <trkpt lat="43.54297" lon="5.51159">
        <ele>370.79998779297</ele>
        <time>2012-12-16T09:40:13.000Z</time>
      </trkpt>
      <trkpt lat="43.54269" lon="5.51122">
        <ele>371.20001220703</ele>
        <time>2012-12-16T09:40:26.000Z</time>
      </trkpt>
      <trkpt lat="43.5424" lon="5.5107">
        <ele>370.20001220703</ele>
        <time>2012-12-16T09:40:45.000Z</time>
      </trkpt>
      <trkpt lat="43.54206" lon="5.51022">
        <ele>369</ele>
        <time>2012-12-16T09:40:55.000Z</time>
      </trkpt>
      <trkpt lat="43.54177" lon="5.50967">
        <ele>369.79998779297</ele>
        <time>2012-12-16T09:41:05.000Z</time>
      </trkpt>
      <trkpt lat="43.54149" lon="5.50914">
        <ele>370.60000610352</ele>
        <time>2012-12-16T09:41:16.000Z</time>
      </trkpt>
      <trkpt lat="43.54115" lon="5.50875">
        <ele>368.60000610352</ele>
        <time>2012-12-16T09:41:25.000Z</time>
      </trkpt>
      <trkpt lat="43.54086" lon="5.50825">
        <ele>368</ele>
        <time>2012-12-16T09:41:34.000Z</time>
      </trkpt>
      <trkpt lat="43.54049" lon="5.50787">
        <ele>366.60000610352</ele>
        <time>2012-12-16T09:41:42.000Z</time>
      </trkpt>
      <trkpt lat="43.54004" lon="5.5076">
        <ele>365.60000610352</ele>
        <time>2012-12-16T09:41:51.000Z</time>
      </trkpt>
      <trkpt lat="43.53959" lon="5.50765">
        <ele>363.20001220703</ele>
        <time>2012-12-16T09:42:03.000Z</time>
      </trkpt>
      <trkpt lat="43.5392" lon="5.50808">
        <ele>361</ele>
        <time>2012-12-16T09:42:16.000Z</time>
      </trkpt>
      <trkpt lat="43.53885" lon="5.50853">
        <ele>357</ele>
        <time>2012-12-16T09:42:26.000Z</time>
      </trkpt>
      <trkpt lat="43.53839" lon="5.5087">
        <ele>352.79998779297</ele>
        <time>2012-12-16T09:42:34.000Z</time>
      </trkpt>
      <trkpt lat="43.53794" lon="5.50857">
        <ele>347.60000610352</ele>
        <time>2012-12-16T09:42:41.000Z</time>
      </trkpt>
      <trkpt lat="43.5375" lon="5.50842">
        <ele>342.79998779297</ele>
        <time>2012-12-16T09:42:47.000Z</time>
      </trkpt>
      <trkpt lat="43.53708" lon="5.50823">
        <ele>339.60000610352</ele>
        <time>2012-12-16T09:42:56.000Z</time>
      </trkpt>
      <trkpt lat="43.53685" lon="5.50762">
        <ele>339</ele>
        <time>2012-12-16T09:43:06.000Z</time>
      </trkpt>
      <trkpt lat="43.53646" lon="5.50717">
        <ele>336.60000610352</ele>
        <time>2012-12-16T09:43:15.000Z</time>
      </trkpt>
      <trkpt lat="43.53615" lon="5.50666">
        <ele>335.60000610352</ele>
        <time>2012-12-16T09:43:24.000Z</time>
      </trkpt>
      <trkpt lat="43.53617" lon="5.50607">
        <ele>340.60000610352</ele>
        <time>2012-12-16T09:43:34.000Z</time>
      </trkpt>
      <trkpt lat="43.53633" lon="5.50562">
        <ele>345.60000610352</ele>
        <time>2012-12-16T09:43:56.000Z</time>
      </trkpt>
      <trkpt lat="43.53677" lon="5.50539">
        <ele>350.39999389648</ele>
        <time>2012-12-16T09:44:20.000Z</time>
      </trkpt>
      <trkpt lat="43.53718" lon="5.50495">
        <ele>354</ele>
        <time>2012-12-16T09:44:39.000Z</time>
      </trkpt>
      <trkpt lat="43.53767" lon="5.50481">
        <ele>356.20001220703</ele>
        <time>2012-12-16T09:44:55.000Z</time>
      </trkpt>
      <trkpt lat="43.53814" lon="5.50464">
        <ele>357.20001220703</ele>
        <time>2012-12-16T09:45:12.000Z</time>
      </trkpt>
      <trkpt lat="43.53858" lon="5.5044">
        <ele>358.20001220703</ele>
        <time>2012-12-16T09:45:30.000Z</time>
      </trkpt>
      <trkpt lat="43.53907" lon="5.50431">
        <ele>359.60000610352</ele>
        <time>2012-12-16T09:45:50.000Z</time>
      </trkpt>
      <trkpt lat="43.53944" lon="5.50384">
        <ele>360.39999389648</ele>
        <time>2012-12-16T09:46:07.000Z</time>
      </trkpt>
      <trkpt lat="43.53977" lon="5.50339">
        <ele>359.60000610352</ele>
        <time>2012-12-16T09:46:23.000Z</time>
      </trkpt>
      <trkpt lat="43.54025" lon="5.50324">
        <ele>357.60000610352</ele>
        <time>2012-12-16T09:46:38.000Z</time>
      </trkpt>
      <trkpt lat="43.54021" lon="5.50273">
        <ele>356</ele>
        <time>2012-12-16T09:46:53.000Z</time>
      </trkpt>
      <trkpt lat="43.53984" lon="5.50234">
        <ele>356.79998779297</ele>
        <time>2012-12-16T09:47:05.000Z</time>
      </trkpt>
      <trkpt lat="43.53944" lon="5.50198">
        <ele>357.20001220703</ele>
        <time>2012-12-16T09:47:17.000Z</time>
      </trkpt>
      <trkpt lat="43.539" lon="5.50177">
        <ele>358.60000610352</ele>
        <time>2012-12-16T09:47:29.000Z</time>
      </trkpt>
      <trkpt lat="43.53865" lon="5.50143">
        <ele>356.79998779297</ele>
        <time>2012-12-16T09:47:40.000Z</time>
      </trkpt>
      <trkpt lat="43.5383" lon="5.50097">
        <ele>355.79998779297</ele>
        <time>2012-12-16T09:47:51.000Z</time>
      </trkpt>
      <trkpt lat="43.53799" lon="5.50049">
        <ele>355</ele>
        <time>2012-12-16T09:48:00.000Z</time>
      </trkpt>
      <trkpt lat="43.53767" lon="5.50006">
        <ele>356.39999389648</ele>
        <time>2012-12-16T09:48:13.000Z</time>
      </trkpt>
      <trkpt lat="43.53759" lon="5.49942">
        <ele>358.20001220703</ele>
        <time>2012-12-16T09:48:30.000Z</time>
      </trkpt>
      <trkpt lat="43.53732" lon="5.49902">
        <ele>359.20001220703</ele>
        <time>2012-12-16T09:48:39.000Z</time>
      </trkpt>
      <trkpt lat="43.53692" lon="5.49863">
        <ele>357</ele>
        <time>2012-12-16T09:49:06.000Z</time>
      </trkpt>
      <trkpt lat="43.53699" lon="5.49871">
        <ele>357.39999389648</ele>
        <time>2012-12-16T09:49:34.000Z</time>
      </trkpt>
      <trkpt lat="43.53738" lon="5.49906">
        <ele>359.39999389648</ele>
        <time>2012-12-16T09:49:48.000Z</time>
      </trkpt>
      <trkpt lat="43.53774" lon="5.49863">
        <ele>356.60000610352</ele>
        <time>2012-12-16T09:50:06.000Z</time>
      </trkpt>
      <trkpt lat="43.53799" lon="5.49808">
        <ele>354.20001220703</ele>
        <time>2012-12-16T09:50:17.000Z</time>
      </trkpt>
      <trkpt lat="43.53811" lon="5.4974">
        <ele>355</ele>
        <time>2012-12-16T09:50:27.000Z</time>
      </trkpt>
      <trkpt lat="43.53816" lon="5.49677">
        <ele>353.79998779297</ele>
        <time>2012-12-16T09:50:36.000Z</time>
      </trkpt>
      <trkpt lat="43.53816" lon="5.49615">
        <ele>354.39999389648</ele>
        <time>2012-12-16T09:50:47.000Z</time>
      </trkpt>
      <trkpt lat="43.53774" lon="5.49644">
        <ele>356.20001220703</ele>
        <time>2012-12-16T09:50:56.000Z</time>
      </trkpt>
      <trkpt lat="43.53743" lon="5.49693">
        <ele>357.39999389648</ele>
        <time>2012-12-16T09:51:07.000Z</time>
      </trkpt>
      <trkpt lat="43.53699" lon="5.49711">
        <ele>356</ele>
        <time>2012-12-16T09:51:20.000Z</time>
      </trkpt>
      <trkpt lat="43.53668" lon="5.4967">
        <ele>355</ele>
        <time>2012-12-16T09:51:32.000Z</time>
      </trkpt>
      <trkpt lat="43.53696" lon="5.4962">
        <ele>356</ele>
        <time>2012-12-16T09:51:46.000Z</time>
      </trkpt>
      <trkpt lat="43.53729" lon="5.49575">
        <ele>357.79998779297</ele>
        <time>2012-12-16T09:51:58.000Z</time>
      </trkpt>
      <trkpt lat="43.5377" lon="5.49545">
        <ele>356.79998779297</ele>
        <time>2012-12-16T09:52:09.000Z</time>
      </trkpt>
      <trkpt lat="43.53811" lon="5.49513">
        <ele>354.20001220703</ele>
        <time>2012-12-16T09:52:20.000Z</time>
      </trkpt>
      <trkpt lat="43.53837" lon="5.49457">
        <ele>351.79998779297</ele>
        <time>2012-12-16T09:52:32.000Z</time>
      </trkpt>
      <trkpt lat="43.5384" lon="5.49397">
        <ele>350.79998779297</ele>
        <time>2012-12-16T09:52:42.000Z</time>
      </trkpt>
      <trkpt lat="43.53849" lon="5.49342">
        <ele>349.39999389648</ele>
        <time>2012-12-16T09:52:51.000Z</time>
      </trkpt>
      <trkpt lat="43.53825" lon="5.49291">
        <ele>349.60000610352</ele>
        <time>2012-12-16T09:52:59.000Z</time>
      </trkpt>
      <trkpt lat="43.5382" lon="5.49227">
        <ele>348.39999389648</ele>
        <time>2012-12-16T09:53:07.000Z</time>
      </trkpt>
      <trkpt lat="43.53821" lon="5.4917">
        <ele>348.20001220703</ele>
        <time>2012-12-16T09:53:16.000Z</time>
      </trkpt>
      <trkpt lat="43.53826" lon="5.49106">
        <ele>347.39999389648</ele>
        <time>2012-12-16T09:53:25.000Z</time>
      </trkpt>
      <trkpt lat="43.53799" lon="5.49057">
        <ele>347.60000610352</ele>
        <time>2012-12-16T09:53:34.000Z</time>
      </trkpt>
      <trkpt lat="43.53815" lon="5.48997">
        <ele>346.60000610352</ele>
        <time>2012-12-16T09:53:47.000Z</time>
      </trkpt>
      <trkpt lat="43.53857" lon="5.48963">
        <ele>344.60000610352</ele>
        <time>2012-12-16T09:53:59.000Z</time>
      </trkpt>
      <trkpt lat="43.53887" lon="5.4891">
        <ele>341.20001220703</ele>
        <time>2012-12-16T09:54:09.000Z</time>
      </trkpt>
      <trkpt lat="43.5386" lon="5.48862">
        <ele>339.60000610352</ele>
        <time>2012-12-16T09:54:18.000Z</time>
      </trkpt>
      <trkpt lat="43.53836" lon="5.48815">
        <ele>337.60000610352</ele>
        <time>2012-12-16T09:54:27.000Z</time>
      </trkpt>
      <trkpt lat="43.53788" lon="5.48826">
        <ele>335.39999389648</ele>
        <time>2012-12-16T09:54:35.000Z</time>
      </trkpt>
      <trkpt lat="43.53739" lon="5.4884">
        <ele>334</ele>
        <time>2012-12-16T09:54:43.000Z</time>
      </trkpt>
      <trkpt lat="43.53705" lon="5.48886">
        <ele>336.20001220703</ele>
        <time>2012-12-16T09:54:51.000Z</time>
      </trkpt>
      <trkpt lat="43.53677" lon="5.4893">
        <ele>338</ele>
        <time>2012-12-16T09:54:59.000Z</time>
      </trkpt>
      <trkpt lat="43.53637" lon="5.48938">
        <ele>339</ele>
        <time>2012-12-16T09:55:08.000Z</time>
      </trkpt>
      <trkpt lat="43.53625" lon="5.48874">
        <ele>337.39999389648</ele>
        <time>2012-12-16T09:55:18.000Z</time>
      </trkpt>
      <trkpt lat="43.53609" lon="5.48814">
        <ele>336.39999389648</ele>
        <time>2012-12-16T09:55:28.000Z</time>
      </trkpt>
      <trkpt lat="43.53606" lon="5.4875">
        <ele>333.79998779297</ele>
        <time>2012-12-16T09:55:40.000Z</time>
      </trkpt>
      <trkpt lat="43.53569" lon="5.48706">
        <ele>333</ele>
        <time>2012-12-16T09:55:50.000Z</time>
      </trkpt>
      <trkpt lat="43.53521" lon="5.48713">
        <ele>332.79998779297</ele>
        <time>2012-12-16T09:55:59.000Z</time>
      </trkpt>
      <trkpt lat="43.53492" lon="5.48758">
        <ele>331.39999389648</ele>
        <time>2012-12-16T09:56:08.000Z</time>
      </trkpt>
      <trkpt lat="43.535" lon="5.48824">
        <ele>334.60000610352</ele>
        <time>2012-12-16T09:56:18.000Z</time>
      </trkpt>
      <trkpt lat="43.53488" lon="5.48885">
        <ele>334.60000610352</ele>
        <time>2012-12-16T09:56:27.000Z</time>
      </trkpt>
      <trkpt lat="43.53454" lon="5.48929">
        <ele>332.39999389648</ele>
        <time>2012-12-16T09:56:35.000Z</time>
      </trkpt>
      <trkpt lat="43.53448" lon="5.48993">
        <ele>334</ele>
        <time>2012-12-16T09:56:46.000Z</time>
      </trkpt>
      <trkpt lat="43.5345" lon="5.4906">
        <ele>334.60000610352</ele>
        <time>2012-12-16T09:56:57.000Z</time>
      </trkpt>
      <trkpt lat="43.53486" lon="5.49103">
        <ele>337</ele>
        <time>2012-12-16T09:57:07.000Z</time>
      </trkpt>
      <trkpt lat="43.5353" lon="5.49124">
        <ele>339.39999389648</ele>
        <time>2012-12-16T09:57:16.000Z</time>
      </trkpt>
      <trkpt lat="43.53547" lon="5.49165">
        <ele>339.79998779297</ele>
        <time>2012-12-16T09:57:28.000Z</time>
      </trkpt>
      <trkpt lat="43.53554" lon="5.49224">
        <ele>342</ele>
        <time>2012-12-16T09:57:40.000Z</time>
      </trkpt>
      <trkpt lat="43.53563" lon="5.49288">
        <ele>344.60000610352</ele>
        <time>2012-12-16T09:57:52.000Z</time>
      </trkpt>
      <trkpt lat="43.53571" lon="5.49353">
        <ele>347.20001220703</ele>
        <time>2012-12-16T09:58:02.000Z</time>
      </trkpt>
      <trkpt lat="43.53594" lon="5.49409">
        <ele>350.79998779297</ele>
        <time>2012-12-16T09:58:13.000Z</time>
      </trkpt>
      <trkpt lat="43.53616" lon="5.49468">
        <ele>351.39999389648</ele>
        <time>2012-12-16T09:58:25.000Z</time>
      </trkpt>
      <trkpt lat="43.53622" lon="5.49531">
        <ele>352.20001220703</ele>
        <time>2012-12-16T09:58:35.000Z</time>
      </trkpt>
      <trkpt lat="43.53636" lon="5.49594">
        <ele>353.39999389648</ele>
        <time>2012-12-16T09:58:46.000Z</time>
      </trkpt>
      <trkpt lat="43.53596" lon="5.49624">
        <ele>351.39999389648</ele>
        <time>2012-12-16T09:58:56.000Z</time>
      </trkpt>
      <trkpt lat="43.53574" lon="5.49639">
        <ele>350.20001220703</ele>
        <time>2012-12-16T10:02:35.000Z</time>
      </trkpt>
      <trkpt lat="43.53532" lon="5.49619">
        <ele>346.60000610352</ele>
        <time>2012-12-16T10:02:44.000Z</time>
      </trkpt>
      <trkpt lat="43.53488" lon="5.4959">
        <ele>343</ele>
        <time>2012-12-16T10:02:52.000Z</time>
      </trkpt>
      <trkpt lat="43.53448" lon="5.49551">
        <ele>340.60000610352</ele>
        <time>2012-12-16T10:03:02.000Z</time>
      </trkpt>
      <trkpt lat="43.53406" lon="5.49557">
        <ele>339.79998779297</ele>
        <time>2012-12-16T10:03:12.000Z</time>
      </trkpt>
      <trkpt lat="43.53361" lon="5.49568">
        <ele>338.39999389648</ele>
        <time>2012-12-16T10:03:25.000Z</time>
      </trkpt>
      <trkpt lat="43.53326" lon="5.49546">
        <ele>337.60000610352</ele>
        <time>2012-12-16T10:03:39.000Z</time>
      </trkpt>
      <trkpt lat="43.53289" lon="5.49507">
        <ele>339.39999389648</ele>
        <time>2012-12-16T10:03:50.000Z</time>
      </trkpt>
      <trkpt lat="43.53245" lon="5.49493">
        <ele>340.79998779297</ele>
        <time>2012-12-16T10:04:04.000Z</time>
      </trkpt>
      <trkpt lat="43.53201" lon="5.49517">
        <ele>341.39999389648</ele>
        <time>2012-12-16T10:04:21.000Z</time>
      </trkpt>
      <trkpt lat="43.53152" lon="5.49515">
        <ele>342.20001220703</ele>
        <time>2012-12-16T10:04:36.000Z</time>
      </trkpt>
      <trkpt lat="43.53111" lon="5.49483">
        <ele>342.39999389648</ele>
        <time>2012-12-16T10:04:50.000Z</time>
      </trkpt>
      <trkpt lat="43.53077" lon="5.49435">
        <ele>343.20001220703</ele>
        <time>2012-12-16T10:05:04.000Z</time>
      </trkpt>
      <trkpt lat="43.53036" lon="5.49406">
        <ele>344.60000610352</ele>
        <time>2012-12-16T10:05:16.000Z</time>
      </trkpt>
      <trkpt lat="43.53037" lon="5.49461">
        <ele>344.79998779297</ele>
        <time>2012-12-16T10:05:32.000Z</time>
      </trkpt>
      <trkpt lat="43.53054" lon="5.49518">
        <ele>344.39999389648</ele>
        <time>2012-12-16T10:05:50.000Z</time>
      </trkpt>
      <trkpt lat="43.5306" lon="5.49579">
        <ele>344.39999389648</ele>
        <time>2012-12-16T10:06:02.000Z</time>
      </trkpt>
      <trkpt lat="43.53074" lon="5.49638">
        <ele>346</ele>
        <time>2012-12-16T10:06:15.000Z</time>
      </trkpt>
      <trkpt lat="43.53073" lon="5.49703">
        <ele>348</ele>
        <time>2012-12-16T10:06:29.000Z</time>
      </trkpt>
      <trkpt lat="43.53083" lon="5.49764">
        <ele>348.79998779297</ele>
        <time>2012-12-16T10:07:00.000Z</time>
      </trkpt>
      <trkpt lat="43.53073" lon="5.49831">
        <ele>348.20001220703</ele>
        <time>2012-12-16T10:07:13.000Z</time>
      </trkpt>
      <trkpt lat="43.53072" lon="5.49896">
        <ele>348.39999389648</ele>
        <time>2012-12-16T10:07:24.000Z</time>
      </trkpt>
      <trkpt lat="43.53084" lon="5.49957">
        <ele>348.39999389648</ele>
        <time>2012-12-16T10:07:36.000Z</time>
      </trkpt>
      <trkpt lat="43.53101" lon="5.50014">
        <ele>347.20001220703</ele>
        <time>2012-12-16T10:07:53.000Z</time>
      </trkpt>
      <trkpt lat="43.53127" lon="5.50069">
        <ele>346.39999389648</ele>
        <time>2012-12-16T10:08:17.000Z</time>
      </trkpt>
      <trkpt lat="43.53154" lon="5.50122">
        <ele>349.60000610352</ele>
        <time>2012-12-16T10:08:30.000Z</time>
      </trkpt>
      <trkpt lat="43.53185" lon="5.50177">
        <ele>352.20001220703</ele>
        <time>2012-12-16T10:08:41.000Z</time>
      </trkpt>
      <trkpt lat="43.53208" lon="5.50233">
        <ele>351</ele>
        <time>2012-12-16T10:08:52.000Z</time>
      </trkpt>
      <trkpt lat="43.53225" lon="5.50295">
        <ele>348.79998779297</ele>
        <time>2012-12-16T10:09:04.000Z</time>
      </trkpt>
      <trkpt lat="43.53209" lon="5.50352">
        <ele>347.79998779297</ele>
        <time>2012-12-16T10:09:16.000Z</time>
      </trkpt>
      <trkpt lat="43.5317" lon="5.50385">
        <ele>348.79998779297</ele>
        <time>2012-12-16T10:09:25.000Z</time>
      </trkpt>
      <trkpt lat="43.53135" lon="5.50428">
        <ele>348.39999389648</ele>
        <time>2012-12-16T10:09:35.000Z</time>
      </trkpt>
      <trkpt lat="43.53091" lon="5.5046">
        <ele>346.79998779297</ele>
        <time>2012-12-16T10:09:46.000Z</time>
      </trkpt>
      <trkpt lat="43.53047" lon="5.50486">
        <ele>343.79998779297</ele>
        <time>2012-12-16T10:09:56.000Z</time>
      </trkpt>
      <trkpt lat="43.53002" lon="5.50502">
        <ele>339.60000610352</ele>
        <time>2012-12-16T10:10:04.000Z</time>
      </trkpt>
      <trkpt lat="43.52956" lon="5.50506">
        <ele>333.79998779297</ele>
        <time>2012-12-16T10:10:13.000Z</time>
      </trkpt>
      <trkpt lat="43.52912" lon="5.50525">
        <ele>322.79998779297</ele>
        <time>2012-12-16T10:10:22.000Z</time>
      </trkpt>
      <trkpt lat="43.52875" lon="5.50487">
        <ele>313</ele>
        <time>2012-12-16T10:10:32.000Z</time>
      </trkpt>
      <trkpt lat="43.5287" lon="5.50423">
        <ele>313.39999389648</ele>
        <time>2012-12-16T10:10:38.000Z</time>
      </trkpt>
      <trkpt lat="43.52874" lon="5.50365">
        <ele>313.20001220703</ele>
        <time>2012-12-16T10:10:47.000Z</time>
      </trkpt>
      <trkpt lat="43.52847" lon="5.50429">
        <ele>301.60000610352</ele>
        <time>2012-12-16T10:10:57.000Z</time>
      </trkpt>
      <trkpt lat="43.52842" lon="5.50493">
        <ele>297.79998779297</ele>
        <time>2012-12-16T10:11:03.000Z</time>
      </trkpt>
      <trkpt lat="43.52858" lon="5.50558">
        <ele>297</ele>
        <time>2012-12-16T10:11:09.000Z</time>
      </trkpt>
      <trkpt lat="43.52882" lon="5.50615">
        <ele>297.20001220703</ele>
        <time>2012-12-16T10:11:16.000Z</time>
      </trkpt>
      <trkpt lat="43.52886" lon="5.50676">
        <ele>291</ele>
        <time>2012-12-16T10:11:25.000Z</time>
      </trkpt>
      <trkpt lat="43.52919" lon="5.50719">
        <ele>285.20001220703</ele>
        <time>2012-12-16T10:11:37.000Z</time>
      </trkpt>
      <trkpt lat="43.52964" lon="5.50717">
        <ele>284.20001220703</ele>
        <time>2012-12-16T10:11:50.000Z</time>
      </trkpt>
      <trkpt lat="43.5301" lon="5.50738">
        <ele>277.60000610352</ele>
        <time>2012-12-16T10:12:00.000Z</time>
      </trkpt>
      <trkpt lat="43.53059" lon="5.5076">
        <ele>270</ele>
        <time>2012-12-16T10:12:22.000Z</time>
      </trkpt>
      <trkpt lat="43.53097" lon="5.50799">
        <ele>261.20001220703</ele>
        <time>2012-12-16T10:12:37.000Z</time>
      </trkpt>
      <trkpt lat="43.53144" lon="5.50807">
        <ele>259</ele>
        <time>2012-12-16T10:12:56.000Z</time>
      </trkpt>
      <trkpt lat="43.53188" lon="5.50796">
        <ele>259.39999389648</ele>
        <time>2012-12-16T10:13:11.000Z</time>
      </trkpt>
      <trkpt lat="43.53238" lon="5.50793">
        <ele>253.19999694824</ele>
        <time>2012-12-16T10:13:26.000Z</time>
      </trkpt>
      <trkpt lat="43.53286" lon="5.50779">
        <ele>253.60000610352</ele>
        <time>2012-12-16T10:14:18.000Z</time>
      </trkpt>
      <trkpt lat="43.53311" lon="5.50774">
        <ele>252.60000610352</ele>
        <time>2012-12-16T10:15:49.000Z</time>
      </trkpt>
      <trkpt lat="43.5332" lon="5.50818">
        <ele>245.80000305176</ele>
        <time>2012-12-16T10:16:51.000Z</time>
      </trkpt>
      <trkpt lat="43.5331" lon="5.50891">
        <ele>235.19999694824</ele>
        <time>2012-12-16T10:17:37.000Z</time>
      </trkpt>
      <trkpt lat="43.53305" lon="5.50927">
        <ele>230.39999389648</ele>
        <time>2012-12-16T10:18:40.000Z</time>
      </trkpt>
      <trkpt lat="43.53315" lon="5.50984">
        <ele>231.80000305176</ele>
        <time>2012-12-16T10:19:24.000Z</time>
      </trkpt>
      <trkpt lat="43.53327" lon="5.51051">
        <ele>237.60000610352</ele>
        <time>2012-12-16T10:19:44.000Z</time>
      </trkpt>
      <trkpt lat="43.53303" lon="5.51109">
        <ele>237.39999389648</ele>
        <time>2012-12-16T10:20:12.000Z</time>
      </trkpt>
      <trkpt lat="43.53309" lon="5.51174">
        <ele>244.80000305176</ele>
        <time>2012-12-16T10:20:44.000Z</time>
      </trkpt>
      <trkpt lat="43.53272" lon="5.51159">
        <ele>236</ele>
        <time>2012-12-16T10:21:07.000Z</time>
      </trkpt>
      <trkpt lat="43.53234" lon="5.5114">
        <ele>233.60000610352</ele>
        <time>2012-12-16T10:21:29.000Z</time>
      </trkpt>
      <trkpt lat="43.53202" lon="5.51104">
        <ele>234.60000610352</ele>
        <time>2012-12-16T10:22:33.000Z</time>
      </trkpt>
      <trkpt lat="43.53171" lon="5.51083">
        <ele>235.19999694824</ele>
        <time>2012-12-16T10:23:24.000Z</time>
      </trkpt>
      <trkpt lat="43.5316" lon="5.511">
        <ele>238.60000610352</ele>
        <time>2012-12-16T10:25:29.000Z</time>
      </trkpt>
      <trkpt lat="43.53143" lon="5.51154">
        <ele>248</ele>
        <time>2012-12-16T10:26:04.000Z</time>
      </trkpt>
      <trkpt lat="43.53142" lon="5.51217">
        <ele>256.60000610352</ele>
        <time>2012-12-16T10:26:34.000Z</time>
      </trkpt>
      <trkpt lat="43.53129" lon="5.51279">
        <ele>264</ele>
        <time>2012-12-16T10:27:02.000Z</time>
      </trkpt>
      <trkpt lat="43.53118" lon="5.5134">
        <ele>270.20001220703</ele>
        <time>2012-12-16T10:27:34.000Z</time>
      </trkpt>
      <trkpt lat="43.53086" lon="5.51372">
        <ele>272.39999389648</ele>
        <time>2012-12-16T10:28:07.000Z</time>
      </trkpt>
      <trkpt lat="43.53035" lon="5.51372">
        <ele>268.79998779297</ele>
        <time>2012-12-16T10:28:20.000Z</time>
      </trkpt>
      <trkpt lat="43.52991" lon="5.51388">
        <ele>266.20001220703</ele>
        <time>2012-12-16T10:28:28.000Z</time>
      </trkpt>
      <trkpt lat="43.52945" lon="5.51401">
        <ele>267.79998779297</ele>
        <time>2012-12-16T10:28:36.000Z</time>
      </trkpt>
      <trkpt lat="43.52899" lon="5.51416">
        <ele>274.60000610352</ele>
        <time>2012-12-16T10:28:53.000Z</time>
      </trkpt>
      <trkpt lat="43.52856" lon="5.51441">
        <ele>281</ele>
        <time>2012-12-16T10:29:15.000Z</time>
      </trkpt>
      <trkpt lat="43.52809" lon="5.51446">
        <ele>288.60000610352</ele>
        <time>2012-12-16T10:29:36.000Z</time>
      </trkpt>
      <trkpt lat="43.52764" lon="5.51468">
        <ele>295.39999389648</ele>
        <time>2012-12-16T10:29:58.000Z</time>
      </trkpt>
      <trkpt lat="43.5273" lon="5.51513">
        <ele>290.20001220703</ele>
        <time>2012-12-16T10:30:25.000Z</time>
      </trkpt>
      <trkpt lat="43.52733" lon="5.5159">
        <ele>295.60000610352</ele>
        <time>2012-12-16T10:30:53.000Z</time>
      </trkpt>
      <trkpt lat="43.52737" lon="5.51663">
        <ele>301</ele>
        <time>2012-12-16T10:31:19.000Z</time>
      </trkpt>
      <trkpt lat="43.52726" lon="5.51729">
        <ele>298.79998779297</ele>
        <time>2012-12-16T10:31:40.000Z</time>
      </trkpt>
      <trkpt lat="43.52717" lon="5.51795">
        <ele>301.39999389648</ele>
        <time>2012-12-16T10:31:59.000Z</time>
      </trkpt>
      <trkpt lat="43.52711" lon="5.51859">
        <ele>305.39999389648</ele>
        <time>2012-12-16T10:32:17.000Z</time>
      </trkpt>
      <trkpt lat="43.5269" lon="5.51919">
        <ele>308.79998779297</ele>
        <time>2012-12-16T10:32:33.000Z</time>
      </trkpt>
      <trkpt lat="43.52692" lon="5.51981">
        <ele>311</ele>
        <time>2012-12-16T10:32:46.000Z</time>
      </trkpt>
      <trkpt lat="43.52697" lon="5.52048">
        <ele>310.39999389648</ele>
        <time>2012-12-16T10:32:59.000Z</time>
      </trkpt>
      <trkpt lat="43.52705" lon="5.52114">
        <ele>310.60000610352</ele>
        <time>2012-12-16T10:33:10.000Z</time>
      </trkpt>
      <trkpt lat="43.52714" lon="5.52181">
        <ele>312.79998779297</ele>
        <time>2012-12-16T10:33:20.000Z</time>
      </trkpt>
      <trkpt lat="43.52726" lon="5.5224">
        <ele>312.20001220703</ele>
        <time>2012-12-16T10:33:31.000Z</time>
      </trkpt>
      <trkpt lat="43.52758" lon="5.52292">
        <ele>312.39999389648</ele>
        <time>2012-12-16T10:33:38.000Z</time>
      </trkpt>
      <trkpt lat="43.52797" lon="5.52342">
        <ele>310</ele>
        <time>2012-12-16T10:33:44.000Z</time>
      </trkpt>
      <trkpt lat="43.52819" lon="5.524">
        <ele>312.20001220703</ele>
        <time>2012-12-16T10:33:50.000Z</time>
      </trkpt>
      <trkpt lat="43.52824" lon="5.5245">
        <ele>316.79998779297</ele>
        <time>2012-12-16T10:38:01.000Z</time>
      </trkpt>
      <trkpt lat="43.52784" lon="5.52425">
        <ele>310.79998779297</ele>
        <time>2012-12-16T10:38:14.000Z</time>
      </trkpt>
      <trkpt lat="43.52747" lon="5.52384">
        <ele>307.60000610352</ele>
        <time>2012-12-16T10:38:21.000Z</time>
      </trkpt>
      <trkpt lat="43.52703" lon="5.52373">
        <ele>301</ele>
        <time>2012-12-16T10:38:31.000Z</time>
      </trkpt>
      <trkpt lat="43.52653" lon="5.52377">
        <ele>293.60000610352</ele>
        <time>2012-12-16T10:38:41.000Z</time>
      </trkpt>
      <trkpt lat="43.52607" lon="5.52382">
        <ele>287</ele>
        <time>2012-12-16T10:38:50.000Z</time>
      </trkpt>
      <trkpt lat="43.52558" lon="5.52396">
        <ele>282.20001220703</ele>
        <time>2012-12-16T10:38:59.000Z</time>
      </trkpt>
      <trkpt lat="43.52528" lon="5.52446">
        <ele>277.20001220703</ele>
        <time>2012-12-16T10:39:08.000Z</time>
      </trkpt>
      <trkpt lat="43.52513" lon="5.52519">
        <ele>273.20001220703</ele>
        <time>2012-12-16T10:39:15.000Z</time>
      </trkpt>
      <trkpt lat="43.52494" lon="5.52588">
        <ele>273.79998779297</ele>
        <time>2012-12-16T10:39:22.000Z</time>
      </trkpt>
      <trkpt lat="43.52465" lon="5.52636">
        <ele>271.79998779297</ele>
        <time>2012-12-16T10:39:30.000Z</time>
      </trkpt>
      <trkpt lat="43.52439" lon="5.52693">
        <ele>264.39999389648</ele>
        <time>2012-12-16T10:39:39.000Z</time>
      </trkpt>
      <trkpt lat="43.52441" lon="5.52764">
        <ele>263.39999389648</ele>
        <time>2012-12-16T10:39:49.000Z</time>
      </trkpt>
      <trkpt lat="43.52442" lon="5.52833">
        <ele>259.79998779297</ele>
        <time>2012-12-16T10:39:55.000Z</time>
      </trkpt>
      <trkpt lat="43.52435" lon="5.52898">
        <ele>260.39999389648</ele>
        <time>2012-12-16T10:40:01.000Z</time>
      </trkpt>
      <trkpt lat="43.52434" lon="5.52953">
        <ele>264.60000610352</ele>
        <time>2012-12-16T10:40:12.000Z</time>
      </trkpt>
      <trkpt lat="43.52437" lon="5.53015">
        <ele>270.39999389648</ele>
        <time>2012-12-16T10:40:30.000Z</time>
      </trkpt>
      <trkpt lat="43.52442" lon="5.53076">
        <ele>273.79998779297</ele>
        <time>2012-12-16T10:40:52.000Z</time>
      </trkpt>
      <trkpt lat="43.52452" lon="5.53138">
        <ele>276.39999389648</ele>
        <time>2012-12-16T10:41:15.000Z</time>
      </trkpt>
      <trkpt lat="43.5247" lon="5.53196">
        <ele>281.20001220703</ele>
        <time>2012-12-16T10:41:36.000Z</time>
      </trkpt>
      <trkpt lat="43.5249" lon="5.53251">
        <ele>286</ele>
        <time>2012-12-16T10:41:57.000Z</time>
      </trkpt>
      <trkpt lat="43.5246" lon="5.53274">
        <ele>281.79998779297</ele>
        <time>2012-12-16T10:42:14.000Z</time>
      </trkpt>
      <trkpt lat="43.52455" lon="5.5334">
        <ele>284.20001220703</ele>
        <time>2012-12-16T10:42:34.000Z</time>
      </trkpt>
      <trkpt lat="43.52443" lon="5.53402">
        <ele>286</ele>
        <time>2012-12-16T10:42:55.000Z</time>
      </trkpt>
      <trkpt lat="43.52438" lon="5.53466">
        <ele>289.20001220703</ele>
        <time>2012-12-16T10:43:15.000Z</time>
      </trkpt>
      <trkpt lat="43.52422" lon="5.53527">
        <ele>290.39999389648</ele>
        <time>2012-12-16T10:43:37.000Z</time>
      </trkpt>
      <trkpt lat="43.52414" lon="5.53589">
        <ele>292.60000610352</ele>
        <time>2012-12-16T10:44:00.000Z</time>
      </trkpt>
      <trkpt lat="43.52409" lon="5.53652">
        <ele>295.39999389648</ele>
        <time>2012-12-16T10:44:22.000Z</time>
      </trkpt>
      <trkpt lat="43.52406" lon="5.53716">
        <ele>297</ele>
        <time>2012-12-16T10:44:45.000Z</time>
      </trkpt>
      <trkpt lat="43.52406" lon="5.53707">
        <ele>296.79998779297</ele>
        <time>2012-12-16T10:45:36.000Z</time>
      </trkpt>
      <trkpt lat="43.52411" lon="5.53763">
        <ele>298.39999389648</ele>
        <time>2012-12-16T10:45:57.000Z</time>
      </trkpt>
      <trkpt lat="43.52431" lon="5.5382">
        <ele>300.60000610352</ele>
        <time>2012-12-16T10:46:21.000Z</time>
      </trkpt>
      <trkpt lat="43.52414" lon="5.5388">
        <ele>299.39999389648</ele>
        <time>2012-12-16T10:46:57.000Z</time>
      </trkpt>
      <trkpt lat="43.52408" lon="5.53941">
        <ele>298.39999389648</ele>
        <time>2012-12-16T10:47:07.000Z</time>
      </trkpt>
      <trkpt lat="43.52411" lon="5.54004">
        <ele>294.60000610352</ele>
        <time>2012-12-16T10:47:20.000Z</time>
      </trkpt>
      <trkpt lat="43.52413" lon="5.54065">
        <ele>291.20001220703</ele>
        <time>2012-12-16T10:47:33.000Z</time>
      </trkpt>
      <trkpt lat="43.52421" lon="5.54127">
        <ele>290.39999389648</ele>
        <time>2012-12-16T10:47:41.000Z</time>
      </trkpt>
      <trkpt lat="43.52432" lon="5.54192">
        <ele>290.20001220703</ele>
        <time>2012-12-16T10:47:48.000Z</time>
      </trkpt>
      <trkpt lat="43.52444" lon="5.5426">
        <ele>288.39999389648</ele>
        <time>2012-12-16T10:47:55.000Z</time>
      </trkpt>
      <trkpt lat="43.52456" lon="5.54329">
        <ele>286.20001220703</ele>
        <time>2012-12-16T10:48:02.000Z</time>
      </trkpt>
      <trkpt lat="43.5247" lon="5.54394">
        <ele>282.60000610352</ele>
        <time>2012-12-16T10:48:09.000Z</time>
      </trkpt>
      <trkpt lat="43.52486" lon="5.54456">
        <ele>277</ele>
        <time>2012-12-16T10:48:16.000Z</time>
      </trkpt>
      <trkpt lat="43.52521" lon="5.54501">
        <ele>273.79998779297</ele>
        <time>2012-12-16T10:48:24.000Z</time>
      </trkpt>
      <trkpt lat="43.52563" lon="5.54525">
        <ele>273.60000610352</ele>
        <time>2012-12-16T10:48:34.000Z</time>
      </trkpt>
      <trkpt lat="43.52595" lon="5.54571">
        <ele>273.39999389648</ele>
        <time>2012-12-16T10:48:47.000Z</time>
      </trkpt>
      <trkpt lat="43.52626" lon="5.54624">
        <ele>276.39999389648</ele>
        <time>2012-12-16T10:48:58.000Z</time>
      </trkpt>
      <trkpt lat="43.52652" lon="5.54677">
        <ele>274.20001220703</ele>
        <time>2012-12-16T10:49:08.000Z</time>
      </trkpt>
      <trkpt lat="43.52682" lon="5.54726">
        <ele>271.20001220703</ele>
        <time>2012-12-16T10:49:18.000Z</time>
      </trkpt>
      <trkpt lat="43.52718" lon="5.54766">
        <ele>271.60000610352</ele>
        <time>2012-12-16T10:49:27.000Z</time>
      </trkpt>
      <trkpt lat="43.52747" lon="5.54809">
        <ele>274.60000610352</ele>
        <time>2012-12-16T10:49:38.000Z</time>
      </trkpt>
      <trkpt lat="43.52801" lon="5.54808">
        <ele>273.20001220703</ele>
        <time>2012-12-16T10:50:27.000Z</time>
      </trkpt>
      <trkpt lat="43.52836" lon="5.54854">
        <ele>274.79998779297</ele>
        <time>2012-12-16T10:50:46.000Z</time>
      </trkpt>
      <trkpt lat="43.52871" lon="5.54896">
        <ele>275.79998779297</ele>
        <time>2012-12-16T10:51:01.000Z</time>
      </trkpt>
      <trkpt lat="43.52908" lon="5.54932">
        <ele>273.60000610352</ele>
        <time>2012-12-16T10:51:18.000Z</time>
      </trkpt>
      <trkpt lat="43.52946" lon="5.54957">
        <ele>275.39999389648</ele>
        <time>2012-12-16T10:51:42.000Z</time>
      </trkpt>
      <trkpt lat="43.5299" lon="5.54944">
        <ele>278.79998779297</ele>
        <time>2012-12-16T10:52:00.000Z</time>
      </trkpt>
      <trkpt lat="43.53013" lon="5.54895">
        <ele>283</ele>
        <time>2012-12-16T10:52:21.000Z</time>
      </trkpt>
      <trkpt lat="43.53052" lon="5.54853">
        <ele>288.39999389648</ele>
        <time>2012-12-16T10:52:47.000Z</time>
      </trkpt>
      <trkpt lat="43.53098" lon="5.54821">
        <ele>296</ele>
        <time>2012-12-16T10:53:21.000Z</time>
      </trkpt>
      <trkpt lat="43.53145" lon="5.54802">
        <ele>303.20001220703</ele>
        <time>2012-12-16T10:53:57.000Z</time>
      </trkpt>
      <trkpt lat="43.53193" lon="5.54801">
        <ele>306</ele>
        <time>2012-12-16T10:54:33.000Z</time>
      </trkpt>
      <trkpt lat="43.53204" lon="5.54745">
        <ele>314.60000610352</ele>
        <time>2012-12-16T10:55:12.000Z</time>
      </trkpt>
      <trkpt lat="43.53187" lon="5.54687">
        <ele>323.20001220703</ele>
        <time>2012-12-16T10:55:41.000Z</time>
      </trkpt>
      <trkpt lat="43.53186" lon="5.54623">
        <ele>332.20001220703</ele>
        <time>2012-12-16T10:56:09.000Z</time>
      </trkpt>
      <trkpt lat="43.53182" lon="5.54559">
        <ele>339.39999389648</ele>
        <time>2012-12-16T10:56:33.000Z</time>
      </trkpt>
      <trkpt lat="43.53175" lon="5.54495">
        <ele>342.39999389648</ele>
        <time>2012-12-16T10:57:05.000Z</time>
      </trkpt>
      <trkpt lat="43.53192" lon="5.54441">
        <ele>344.79998779297</ele>
        <time>2012-12-16T10:57:21.000Z</time>
      </trkpt>
      <trkpt lat="43.53229" lon="5.54404">
        <ele>346.79998779297</ele>
        <time>2012-12-16T10:57:42.000Z</time>
      </trkpt>
      <trkpt lat="43.53263" lon="5.5436">
        <ele>351</ele>
        <time>2012-12-16T10:58:06.000Z</time>
      </trkpt>
      <trkpt lat="43.53283" lon="5.54302">
        <ele>357.20001220703</ele>
        <time>2012-12-16T10:58:30.000Z</time>
      </trkpt>
      <trkpt lat="43.53305" lon="5.5425">
        <ele>363.79998779297</ele>
        <time>2012-12-16T10:58:59.000Z</time>
      </trkpt>
      <trkpt lat="43.53334" lon="5.54208">
        <ele>365.60000610352</ele>
        <time>2012-12-16T10:59:27.000Z</time>
      </trkpt>
      <trkpt lat="43.5335" lon="5.54159">
        <ele>367</ele>
        <time>2012-12-16T10:59:52.000Z</time>
      </trkpt>
      <trkpt lat="43.53364" lon="5.54101">
        <ele>365.79998779297</ele>
        <time>2012-12-16T11:00:05.000Z</time>
      </trkpt>
      <trkpt lat="43.53408" lon="5.54082">
        <ele>376.39999389648</ele>
        <time>2012-12-16T11:00:23.000Z</time>
      </trkpt>
      <trkpt lat="43.53439" lon="5.54041">
        <ele>378.20001220703</ele>
        <time>2012-12-16T11:01:39.000Z</time>
      </trkpt>
      <trkpt lat="43.53461" lon="5.53991">
        <ele>377.20001220703</ele>
        <time>2012-12-16T11:08:12.000Z</time>
      </trkpt>
      <trkpt lat="43.53499" lon="5.53948">
        <ele>377.60000610352</ele>
        <time>2012-12-16T11:08:26.000Z</time>
      </trkpt>
      <trkpt lat="43.53543" lon="5.53928">
        <ele>377.60000610352</ele>
        <time>2012-12-16T11:08:38.000Z</time>
      </trkpt>
      <trkpt lat="43.53587" lon="5.53907">
        <ele>378.60000610352</ele>
        <time>2012-12-16T11:08:50.000Z</time>
      </trkpt>
      <trkpt lat="43.53635" lon="5.53904">
        <ele>380.60000610352</ele>
        <time>2012-12-16T11:09:02.000Z</time>
      </trkpt>
      <trkpt lat="43.53681" lon="5.53902">
        <ele>381.20001220703</ele>
        <time>2012-12-16T11:09:13.000Z</time>
      </trkpt>
      <trkpt lat="43.53728" lon="5.53903">
        <ele>379.39999389648</ele>
        <time>2012-12-16T11:09:23.000Z</time>
      </trkpt>
      <trkpt lat="43.53771" lon="5.53891">
        <ele>374.20001220703</ele>
        <time>2012-12-16T11:09:33.000Z</time>
      </trkpt>
      <trkpt lat="43.53794" lon="5.53833">
        <ele>372.79998779297</ele>
        <time>2012-12-16T11:09:44.000Z</time>
      </trkpt>
      <trkpt lat="43.53824" lon="5.53788">
        <ele>372.79998779297</ele>
        <time>2012-12-16T11:09:58.000Z</time>
      </trkpt>
      <trkpt lat="43.53852" lon="5.53739">
        <ele>370.39999389648</ele>
        <time>2012-12-16T11:10:08.000Z</time>
      </trkpt>
      <trkpt lat="43.53841" lon="5.53675">
        <ele>370</ele>
        <time>2012-12-16T11:10:17.000Z</time>
      </trkpt>
      <trkpt lat="43.53816" lon="5.5363">
        <ele>369.20001220703</ele>
        <time>2012-12-16T11:10:27.000Z</time>
      </trkpt>
      <trkpt lat="43.53847" lon="5.53589">
        <ele>363.79998779297</ele>
        <time>2012-12-16T11:10:36.000Z</time>
      </trkpt>
      <trkpt lat="43.53893" lon="5.53564">
        <ele>353.39999389648</ele>
        <time>2012-12-16T11:10:44.000Z</time>
      </trkpt>
      <trkpt lat="43.53929" lon="5.53588">
        <ele>345.60000610352</ele>
        <time>2012-12-16T11:10:51.000Z</time>
      </trkpt>
      <trkpt lat="43.53969" lon="5.53625">
        <ele>333.60000610352</ele>
        <time>2012-12-16T11:10:57.000Z</time>
      </trkpt>
      <trkpt lat="43.54012" lon="5.53647">
        <ele>324</ele>
        <time>2012-12-16T11:11:04.000Z</time>
      </trkpt>
      <trkpt lat="43.54059" lon="5.53648">
        <ele>320</ele>
        <time>2012-12-16T11:11:13.000Z</time>
      </trkpt>
      <trkpt lat="43.54103" lon="5.53623">
        <ele>321.39999389648</ele>
        <time>2012-12-16T11:11:23.000Z</time>
      </trkpt>
      <trkpt lat="43.54138" lon="5.53581">
        <ele>332.20001220703</ele>
        <time>2012-12-16T11:11:33.000Z</time>
      </trkpt>
      <trkpt lat="43.5415" lon="5.53521">
        <ele>341.79998779297</ele>
        <time>2012-12-16T11:11:43.000Z</time>
      </trkpt>
      <trkpt lat="43.54137" lon="5.53459">
        <ele>339</ele>
        <time>2012-12-16T11:11:54.000Z</time>
      </trkpt>
      <trkpt lat="43.54155" lon="5.53399">
        <ele>348.39999389648</ele>
        <time>2012-12-16T11:12:08.000Z</time>
      </trkpt>
      <trkpt lat="43.54169" lon="5.5334">
        <ele>352.60000610352</ele>
        <time>2012-12-16T11:12:20.000Z</time>
      </trkpt>
      <trkpt lat="43.54208" lon="5.53327">
        <ele>360</ele>
        <time>2012-12-16T11:12:43.000Z</time>
      </trkpt>
      <trkpt lat="43.54258" lon="5.53339">
        <ele>368</ele>
        <time>2012-12-16T11:13:05.000Z</time>
      </trkpt>
      <trkpt lat="43.54307" lon="5.53319">
        <ele>375.39999389648</ele>
        <time>2012-12-16T11:13:30.000Z</time>
      </trkpt>
      <trkpt lat="43.5436" lon="5.53335">
        <ele>380</ele>
        <time>2012-12-16T11:13:52.000Z</time>
      </trkpt>
      <trkpt lat="43.544" lon="5.5338">
        <ele>379.39999389648</ele>
        <time>2012-12-16T11:14:09.000Z</time>
      </trkpt>
      <trkpt lat="43.54438" lon="5.53416">
        <ele>382.20001220703</ele>
        <time>2012-12-16T11:14:25.000Z</time>
      </trkpt>
      <trkpt lat="43.54484" lon="5.5344">
        <ele>382.39999389648</ele>
        <time>2012-12-16T11:14:42.000Z</time>
      </trkpt>
      <trkpt lat="43.5453" lon="5.53446">
        <ele>383.79998779297</ele>
        <time>2012-12-16T11:14:55.000Z</time>
      </trkpt>
      <trkpt lat="43.54576" lon="5.53462">
        <ele>383.79998779297</ele>
        <time>2012-12-16T11:15:07.000Z</time>
      </trkpt>
      <trkpt lat="43.5462" lon="5.53479">
        <ele>384.39999389648</ele>
        <time>2012-12-16T11:15:20.000Z</time>
      </trkpt>
      <trkpt lat="43.54669" lon="5.53481">
        <ele>387</ele>
        <time>2012-12-16T11:15:32.000Z</time>
      </trkpt>
      <trkpt lat="43.54716" lon="5.53491">
        <ele>384.39999389648</ele>
        <time>2012-12-16T11:15:42.000Z</time>
      </trkpt>
      <trkpt lat="43.54766" lon="5.53495">
        <ele>379</ele>
        <time>2012-12-16T11:15:51.000Z</time>
      </trkpt>
      <trkpt lat="43.54799" lon="5.53451">
        <ele>378.39999389648</ele>
        <time>2012-12-16T11:15:58.000Z</time>
      </trkpt>
      <trkpt lat="43.54837" lon="5.53402">
        <ele>378.60000610352</ele>
        <time>2012-12-16T11:16:05.000Z</time>
      </trkpt>
      <trkpt lat="43.54862" lon="5.53343">
        <ele>380.39999389648</ele>
        <time>2012-12-16T11:16:12.000Z</time>
      </trkpt>
      <trkpt lat="43.54879" lon="5.53283">
        <ele>380.20001220703</ele>
        <time>2012-12-16T11:16:19.000Z</time>
      </trkpt>
      <trkpt lat="43.54907" lon="5.53233">
        <ele>375.60000610352</ele>
        <time>2012-12-16T11:16:26.000Z</time>
      </trkpt>
      <trkpt lat="43.54937" lon="5.53175">
        <ele>377.79998779297</ele>
        <time>2012-12-16T11:16:34.000Z</time>
      </trkpt>
      <trkpt lat="43.54949" lon="5.53112">
        <ele>377.60000610352</ele>
        <time>2012-12-16T11:16:42.000Z</time>
      </trkpt>
      <trkpt lat="43.54957" lon="5.53049">
        <ele>376.60000610352</ele>
        <time>2012-12-16T11:16:51.000Z</time>
      </trkpt>
      <trkpt lat="43.54949" lon="5.52986">
        <ele>376.79998779297</ele>
        <time>2012-12-16T11:17:02.000Z</time>
      </trkpt>
      <trkpt lat="43.54938" lon="5.52924">
        <ele>376.79998779297</ele>
        <time>2012-12-16T11:17:13.000Z</time>
      </trkpt>
      <trkpt lat="43.54925" lon="5.5286">
        <ele>376.20001220703</ele>
        <time>2012-12-16T11:17:24.000Z</time>
      </trkpt>
      <trkpt lat="43.54913" lon="5.52795">
        <ele>377</ele>
        <time>2012-12-16T11:17:35.000Z</time>
      </trkpt>
      <trkpt lat="43.549" lon="5.5273">
        <ele>380</ele>
        <time>2012-12-16T11:17:46.000Z</time>
      </trkpt>
      <trkpt lat="43.54889" lon="5.52669">
        <ele>382.20001220703</ele>
        <time>2012-12-16T11:17:56.000Z</time>
      </trkpt>
      <trkpt lat="43.54878" lon="5.52607">
        <ele>387</ele>
        <time>2012-12-16T11:18:06.000Z</time>
      </trkpt>
      <trkpt lat="43.54865" lon="5.52546">
        <ele>390</ele>
        <time>2012-12-16T11:18:16.000Z</time>
      </trkpt>
      <trkpt lat="43.54854" lon="5.52486">
        <ele>390.79998779297</ele>
        <time>2012-12-16T11:18:26.000Z</time>
      </trkpt>
      <trkpt lat="43.5485" lon="5.52425">
        <ele>390.79998779297</ele>
        <time>2012-12-16T11:18:37.000Z</time>
      </trkpt>
      <trkpt lat="43.5489" lon="5.52398">
        <ele>391.20001220703</ele>
        <time>2012-12-16T11:18:54.000Z</time>
      </trkpt>
      <trkpt lat="43.54906" lon="5.52351">
        <ele>392.39999389648</ele>
        <time>2012-12-16T11:20:36.000Z</time>
      </trkpt>
      <trkpt lat="43.54947" lon="5.52328">
        <ele>396.20001220703</ele>
        <time>2012-12-16T11:21:03.000Z</time>
      </trkpt>
      <trkpt lat="43.54983" lon="5.52368">
        <ele>399</ele>
        <time>2012-12-16T11:21:27.000Z</time>
      </trkpt>
      <trkpt lat="43.55027" lon="5.52353">
        <ele>403.39999389648</ele>
        <time>2012-12-16T11:21:46.000Z</time>
      </trkpt>
      <trkpt lat="43.55073" lon="5.52359">
        <ele>407.39999389648</ele>
        <time>2012-12-16T11:22:05.000Z</time>
      </trkpt>
      <trkpt lat="43.55075" lon="5.52361">
        <ele>407.39999389648</ele>
        <time>2012-12-16T11:22:29.000Z</time>
      </trkpt>
      <trkpt lat="43.55112" lon="5.52399">
        <ele>409.79998779297</ele>
        <time>2012-12-16T11:22:56.000Z</time>
      </trkpt>
      <trkpt lat="43.55127" lon="5.52346">
        <ele>413.60000610352</ele>
        <time>2012-12-16T11:23:24.000Z</time>
      </trkpt>
      <trkpt lat="43.55116" lon="5.52278">
        <ele>414.39999389648</ele>
        <time>2012-12-16T11:23:43.000Z</time>
      </trkpt>
      <trkpt lat="43.55079" lon="5.52242">
        <ele>413.79998779297</ele>
        <time>2012-12-16T11:24:02.000Z</time>
      </trkpt>
      <trkpt lat="43.55047" lon="5.5219">
        <ele>411.79998779297</ele>
        <time>2012-12-16T11:24:21.000Z</time>
      </trkpt>
      <trkpt lat="43.55049" lon="5.52126">
        <ele>412</ele>
        <time>2012-12-16T11:25:02.000Z</time>
      </trkpt>
      <trkpt lat="43.55093" lon="5.52119">
        <ele>416.60000610352</ele>
        <time>2012-12-16T11:25:31.000Z</time>
      </trkpt>
      <trkpt lat="43.55137" lon="5.5212">
        <ele>419</ele>
        <time>2012-12-16T11:25:58.000Z</time>
      </trkpt>
      <trkpt lat="43.55185" lon="5.521">
        <ele>422.79998779297</ele>
        <time>2012-12-16T11:26:23.000Z</time>
      </trkpt>
      <trkpt lat="43.55235" lon="5.52085">
        <ele>427.60000610352</ele>
        <time>2012-12-16T11:26:50.000Z</time>
      </trkpt>
      <trkpt lat="43.55288" lon="5.52059">
        <ele>433</ele>
        <time>2012-12-16T11:27:25.000Z</time>
      </trkpt>
      <trkpt lat="43.5528" lon="5.51989">
        <ele>436</ele>
        <time>2012-12-16T11:28:07.000Z</time>
      </trkpt>
      <trkpt lat="43.55301" lon="5.51969">
        <ele>438.60000610352</ele>
        <time>2012-12-16T11:28:50.000Z</time>
      </trkpt>
      <trkpt lat="43.5535" lon="5.51989">
        <ele>442</ele>
        <time>2012-12-16T11:29:30.000Z</time>
      </trkpt>
      <trkpt lat="43.55357" lon="5.51944">
        <ele>443.20001220703</ele>
        <time>2012-12-16T11:31:05.000Z</time>
      </trkpt>
      <trkpt lat="43.5534" lon="5.51885">
        <ele>443</ele>
        <time>2012-12-16T11:31:22.000Z</time>
      </trkpt>
      <trkpt lat="43.55333" lon="5.5182">
        <ele>442.60000610352</ele>
        <time>2012-12-16T11:31:37.000Z</time>
      </trkpt>
      <trkpt lat="43.55318" lon="5.51761">
        <ele>439</ele>
        <time>2012-12-16T11:31:48.000Z</time>
      </trkpt>
      <trkpt lat="43.55334" lon="5.51705">
        <ele>440.79998779297</ele>
        <time>2012-12-16T11:31:58.000Z</time>
      </trkpt>
      <trkpt lat="43.55362" lon="5.51657">
        <ele>440.60000610352</ele>
        <time>2012-12-16T11:32:08.000Z</time>
      </trkpt>
      <trkpt lat="43.55387" lon="5.516">
        <ele>441.39999389648</ele>
        <time>2012-12-16T11:32:17.000Z</time>
      </trkpt>
      <trkpt lat="43.55405" lon="5.51538">
        <ele>440.20001220703</ele>
        <time>2012-12-16T11:32:26.000Z</time>
      </trkpt>
      <trkpt lat="43.55394" lon="5.5148">
        <ele>438.79998779297</ele>
        <time>2012-12-16T11:32:36.000Z</time>
      </trkpt>
      <trkpt lat="43.55381" lon="5.51419">
        <ele>437.39999389648</ele>
        <time>2012-12-16T11:32:46.000Z</time>
      </trkpt>
      <trkpt lat="43.55378" lon="5.51352">
        <ele>437</ele>
        <time>2012-12-16T11:32:57.000Z</time>
      </trkpt>
      <trkpt lat="43.5537" lon="5.51286">
        <ele>437.20001220703</ele>
        <time>2012-12-16T11:33:07.000Z</time>
      </trkpt>
      <trkpt lat="43.55357" lon="5.51222">
        <ele>437.20001220703</ele>
        <time>2012-12-16T11:33:17.000Z</time>
      </trkpt>
      <trkpt lat="43.55352" lon="5.51158">
        <ele>436.60000610352</ele>
        <time>2012-12-16T11:33:25.000Z</time>
      </trkpt>
      <trkpt lat="43.55352" lon="5.51092">
        <ele>436</ele>
        <time>2012-12-16T11:33:34.000Z</time>
      </trkpt>
      <trkpt lat="43.55351" lon="5.51024">
        <ele>435.20001220703</ele>
        <time>2012-12-16T11:33:43.000Z</time>
      </trkpt>
      <trkpt lat="43.55341" lon="5.50963">
        <ele>432.79998779297</ele>
        <time>2012-12-16T11:33:51.000Z</time>
      </trkpt>
      <trkpt lat="43.55338" lon="5.50896">
        <ele>430</ele>
        <time>2012-12-16T11:33:59.000Z</time>
      </trkpt>
      <trkpt lat="43.5535" lon="5.50829">
        <ele>429.79998779297</ele>
        <time>2012-12-16T11:34:07.000Z</time>
      </trkpt>
      <trkpt lat="43.55369" lon="5.50767">
        <ele>429.20001220703</ele>
        <time>2012-12-16T11:34:15.000Z</time>
      </trkpt>
      <trkpt lat="43.55393" lon="5.50715">
        <ele>428.39999389648</ele>
        <time>2012-12-16T11:34:22.000Z</time>
      </trkpt>
      <trkpt lat="43.55406" lon="5.50655">
        <ele>427.39999389648</ele>
        <time>2012-12-16T11:34:29.000Z</time>
      </trkpt>
      <trkpt lat="43.55425" lon="5.50592">
        <ele>425.39999389648</ele>
        <time>2012-12-16T11:34:36.000Z</time>
      </trkpt>
      <trkpt lat="43.55457" lon="5.50547">
        <ele>425.39999389648</ele>
        <time>2012-12-16T11:34:43.000Z</time>
      </trkpt>
      <trkpt lat="43.55494" lon="5.50505">
        <ele>425.79998779297</ele>
        <time>2012-12-16T11:34:51.000Z</time>
      </trkpt>
      <trkpt lat="43.5554" lon="5.5049">
        <ele>426.20001220703</ele>
        <time>2012-12-16T11:35:00.000Z</time>
      </trkpt>
      <trkpt lat="43.55578" lon="5.50452">
        <ele>426.20001220703</ele>
        <time>2012-12-16T11:35:08.000Z</time>
      </trkpt>
      <trkpt lat="43.55608" lon="5.50395">
        <ele>426</ele>
        <time>2012-12-16T11:35:16.000Z</time>
      </trkpt>
      <trkpt lat="43.55636" lon="5.50337">
        <ele>425.60000610352</ele>
        <time>2012-12-16T11:35:24.000Z</time>
      </trkpt>
      <trkpt lat="43.55642" lon="5.5027">
        <ele>425</ele>
        <time>2012-12-16T11:35:32.000Z</time>
      </trkpt>
      <trkpt lat="43.55645" lon="5.50202">
        <ele>424.20001220703</ele>
        <time>2012-12-16T11:35:40.000Z</time>
      </trkpt>
      <trkpt lat="43.55664" lon="5.50144">
        <ele>423.60000610352</ele>
        <time>2012-12-16T11:35:47.000Z</time>
      </trkpt>
      <trkpt lat="43.55685" lon="5.50089">
        <ele>423.79998779297</ele>
        <time>2012-12-16T11:35:54.000Z</time>
      </trkpt>
      <trkpt lat="43.55719" lon="5.50043">
        <ele>424.79998779297</ele>
        <time>2012-12-16T11:36:02.000Z</time>
      </trkpt>
      <trkpt lat="43.55742" lon="5.49986">
        <ele>424.79998779297</ele>
        <time>2012-12-16T11:36:10.000Z</time>
      </trkpt>
      <trkpt lat="43.55777" lon="5.49946">
        <ele>425.39999389648</ele>
        <time>2012-12-16T11:36:18.000Z</time>
      </trkpt>
      <trkpt lat="43.55822" lon="5.49919">
        <ele>427.20001220703</ele>
        <time>2012-12-16T11:36:27.000Z</time>
      </trkpt>
      <trkpt lat="43.55868" lon="5.49913">
        <ele>428.60000610352</ele>
        <time>2012-12-16T11:36:35.000Z</time>
      </trkpt>
      <trkpt lat="43.55915" lon="5.49929">
        <ele>430.39999389648</ele>
        <time>2012-12-16T11:36:44.000Z</time>
      </trkpt>
      <trkpt lat="43.5596" lon="5.49939">
        <ele>431</ele>
        <time>2012-12-16T11:36:52.000Z</time>
      </trkpt>
      <trkpt lat="43.56006" lon="5.49941">
        <ele>431</ele>
        <time>2012-12-16T11:37:00.000Z</time>
      </trkpt>
      <trkpt lat="43.56054" lon="5.49931">
        <ele>430.39999389648</ele>
        <time>2012-12-16T11:37:08.000Z</time>
      </trkpt>
      <trkpt lat="43.561" lon="5.49923">
        <ele>429.60000610352</ele>
        <time>2012-12-16T11:37:15.000Z</time>
      </trkpt>
      <trkpt lat="43.56137" lon="5.49883">
        <ele>428.79998779297</ele>
        <time>2012-12-16T11:37:22.000Z</time>
      </trkpt>
      <trkpt lat="43.56179" lon="5.49854">
        <ele>428.20001220703</ele>
        <time>2012-12-16T11:37:29.000Z</time>
      </trkpt>
      <trkpt lat="43.56217" lon="5.4982">
        <ele>428.39999389648</ele>
        <time>2012-12-16T11:37:36.000Z</time>
      </trkpt>
      <trkpt lat="43.56245" lon="5.49765">
        <ele>429.39999389648</ele>
        <time>2012-12-16T11:37:43.000Z</time>
      </trkpt>
      <trkpt lat="43.56269" lon="5.49711">
        <ele>429</ele>
        <time>2012-12-16T11:37:50.000Z</time>
      </trkpt>
      <trkpt lat="43.56286" lon="5.49644">
        <ele>427</ele>
        <time>2012-12-16T11:37:57.000Z</time>
      </trkpt>
      <trkpt lat="43.5632" lon="5.49604">
        <ele>429.39999389648</ele>
        <time>2012-12-16T11:38:03.000Z</time>
      </trkpt>
      <trkpt lat="43.56366" lon="5.49598">
        <ele>430</ele>
        <time>2012-12-16T11:38:08.000Z</time>
      </trkpt>
      <trkpt lat="43.56409" lon="5.49581">
        <ele>430.20001220703</ele>
        <time>2012-12-16T11:38:13.000Z</time>
      </trkpt>
      <trkpt lat="43.56458" lon="5.49566">
        <ele>430</ele>
        <time>2012-12-16T11:38:19.000Z</time>
      </trkpt>
      <trkpt lat="43.56505" lon="5.49558">
        <ele>429</ele>
        <time>2012-12-16T11:38:27.000Z</time>
      </trkpt>
      <trkpt lat="43.56548" lon="5.4958">
        <ele>425.60000610352</ele>
        <time>2012-12-16T11:38:35.000Z</time>
      </trkpt>
      <trkpt lat="43.56555" lon="5.49622">
        <ele>423</ele>
        <time>2012-12-16T11:38:53.000Z</time>
      </trkpt>
      <trkpt lat="43.56526" lon="5.49672">
        <ele>419.79998779297</ele>
        <time>2012-12-16T11:39:04.000Z</time>
      </trkpt>
      <trkpt lat="43.56478" lon="5.49658">
        <ele>421.79998779297</ele>
        <time>2012-12-16T11:39:13.000Z</time>
      </trkpt>
      <trkpt lat="43.56448" lon="5.49701">
        <ele>418.39999389648</ele>
        <time>2012-12-16T11:39:22.000Z</time>
      </trkpt>
      <trkpt lat="43.56455" lon="5.49759">
        <ele>413.60000610352</ele>
        <time>2012-12-16T11:39:30.000Z</time>
      </trkpt>
      <trkpt lat="43.56475" lon="5.49818">
        <ele>408.60000610352</ele>
        <time>2012-12-16T11:39:39.000Z</time>
      </trkpt>
      <trkpt lat="43.5646" lon="5.49879">
        <ele>405.79998779297</ele>
        <time>2012-12-16T11:39:47.000Z</time>
      </trkpt>
      <trkpt lat="43.56424" lon="5.4993">
        <ele>402.39999389648</ele>
        <time>2012-12-16T11:39:54.000Z</time>
      </trkpt>
      <trkpt lat="43.56434" lon="5.49987">
        <ele>397.39999389648</ele>
        <time>2012-12-16T11:40:02.000Z</time>
      </trkpt>
      <trkpt lat="43.56479" lon="5.50009">
        <ele>394.60000610352</ele>
        <time>2012-12-16T11:40:10.000Z</time>
      </trkpt>
      <trkpt lat="43.56521" lon="5.50031">
        <ele>392.60000610352</ele>
        <time>2012-12-16T11:40:17.000Z</time>
      </trkpt>
      <trkpt lat="43.56565" lon="5.50029">
        <ele>389.39999389648</ele>
        <time>2012-12-16T11:40:26.000Z</time>
      </trkpt>
      <trkpt lat="43.56608" lon="5.50044">
        <ele>388</ele>
        <time>2012-12-16T11:40:34.000Z</time>
      </trkpt>
      <trkpt lat="43.56656" lon="5.50058">
        <ele>387.20001220703</ele>
        <time>2012-12-16T11:40:44.000Z</time>
      </trkpt>
      <trkpt lat="43.56706" lon="5.50055">
        <ele>387.79998779297</ele>
        <time>2012-12-16T11:40:53.000Z</time>
      </trkpt>
      <trkpt lat="43.56751" lon="5.5006">
        <ele>388.60000610352</ele>
        <time>2012-12-16T11:41:02.000Z</time>
      </trkpt>
      <trkpt lat="43.56796" lon="5.50072">
        <ele>388</ele>
        <time>2012-12-16T11:41:10.000Z</time>
      </trkpt>
      <trkpt lat="43.56844" lon="5.50079">
        <ele>387.20001220703</ele>
        <time>2012-12-16T11:41:18.000Z</time>
      </trkpt>
      <trkpt lat="43.56892" lon="5.50071">
        <ele>387</ele>
        <time>2012-12-16T11:41:25.000Z</time>
      </trkpt>
      <trkpt lat="43.5694" lon="5.50075">
        <ele>385.39999389648</ele>
        <time>2012-12-16T11:41:33.000Z</time>
      </trkpt>
      <trkpt lat="43.56985" lon="5.50084">
        <ele>384</ele>
        <time>2012-12-16T11:41:41.000Z</time>
      </trkpt>
      <trkpt lat="43.57022" lon="5.50066">
        <ele>382.20001220703</ele>
        <time>2012-12-16T11:41:53.000Z</time>
      </trkpt>
      <trkpt lat="43.57067" lon="5.50052">
        <ele>377.39999389648</ele>
        <time>2012-12-16T11:42:04.000Z</time>
      </trkpt>
      <trkpt lat="43.57111" lon="5.50023">
        <ele>375.20001220703</ele>
        <time>2012-12-16T11:42:12.000Z</time>
      </trkpt>
      <trkpt lat="43.57139" lon="5.50033">
        <ele>374.39999389648</ele>
        <time>2012-12-16T11:46:24.000Z</time>
      </trkpt>
      <trkpt lat="43.57169" lon="5.50088">
        <ele>367.79998779297</ele>
        <time>2012-12-16T11:46:39.000Z</time>
      </trkpt>
      <trkpt lat="43.57205" lon="5.50131">
        <ele>367.20001220703</ele>
        <time>2012-12-16T11:46:50.000Z</time>
      </trkpt>
      <trkpt lat="43.57239" lon="5.50173">
        <ele>368.20001220703</ele>
        <time>2012-12-16T11:47:01.000Z</time>
      </trkpt>
      <trkpt lat="43.5728" lon="5.50217">
        <ele>367.79998779297</ele>
        <time>2012-12-16T11:47:13.000Z</time>
      </trkpt>
      <trkpt lat="43.57319" lon="5.50269">
        <ele>365.39999389648</ele>
        <time>2012-12-16T11:47:22.000Z</time>
      </trkpt>
      <trkpt lat="43.57354" lon="5.50312">
        <ele>363.60000610352</ele>
        <time>2012-12-16T11:47:30.000Z</time>
      </trkpt>
      <trkpt lat="43.57393" lon="5.50354">
        <ele>362.79998779297</ele>
        <time>2012-12-16T11:47:39.000Z</time>
      </trkpt>
      <trkpt lat="43.57438" lon="5.50373">
        <ele>362.60000610352</ele>
        <time>2012-12-16T11:47:48.000Z</time>
      </trkpt>
      <trkpt lat="43.57477" lon="5.50411">
        <ele>364.60000610352</ele>
        <time>2012-12-16T11:47:58.000Z</time>
      </trkpt>
      <trkpt lat="43.57506" lon="5.50373">
        <ele>363.20001220703</ele>
        <time>2012-12-16T11:48:09.000Z</time>
      </trkpt>
      <trkpt lat="43.57529" lon="5.50313">
        <ele>360.79998779297</ele>
        <time>2012-12-16T11:48:18.000Z</time>
      </trkpt>
      <trkpt lat="43.57564" lon="5.50265">
        <ele>358.79998779297</ele>
        <time>2012-12-16T11:48:25.000Z</time>
      </trkpt>
      <trkpt lat="43.57604" lon="5.50229">
        <ele>356.60000610352</ele>
        <time>2012-12-16T11:48:31.000Z</time>
      </trkpt>
      <trkpt lat="43.57647" lon="5.5019">
        <ele>354.20001220703</ele>
        <time>2012-12-16T11:48:38.000Z</time>
      </trkpt>
      <trkpt lat="43.57685" lon="5.50146">
        <ele>353</ele>
        <time>2012-12-16T11:48:46.000Z</time>
      </trkpt>
      <trkpt lat="43.57726" lon="5.50113">
        <ele>353.20001220703</ele>
        <time>2012-12-16T11:48:54.000Z</time>
      </trkpt>
      <trkpt lat="43.57763" lon="5.50078">
        <ele>353</ele>
        <time>2012-12-16T11:49:02.000Z</time>
      </trkpt>
      <trkpt lat="43.578" lon="5.50039">
        <ele>352.79998779297</ele>
        <time>2012-12-16T11:49:10.000Z</time>
      </trkpt>
      <trkpt lat="43.57841" lon="5.50003">
        <ele>351.79998779297</ele>
        <time>2012-12-16T11:49:18.000Z</time>
      </trkpt>
      <trkpt lat="43.57847" lon="5.49941">
        <ele>350.60000610352</ele>
        <time>2012-12-16T11:49:26.000Z</time>
      </trkpt>
      <trkpt lat="43.5786" lon="5.49882">
        <ele>349.39999389648</ele>
        <time>2012-12-16T11:49:34.000Z</time>
      </trkpt>
      <trkpt lat="43.5789" lon="5.49834">
        <ele>348.60000610352</ele>
        <time>2012-12-16T11:49:42.000Z</time>
      </trkpt>
      <trkpt lat="43.57924" lon="5.49794">
        <ele>348.20001220703</ele>
        <time>2012-12-16T11:49:51.000Z</time>
      </trkpt>
      <trkpt lat="43.57955" lon="5.4974">
        <ele>348.20001220703</ele>
        <time>2012-12-16T11:50:06.000Z</time>
      </trkpt>
      <trkpt lat="43.57984" lon="5.49688">
        <ele>348.60000610352</ele>
        <time>2012-12-16T11:50:17.000Z</time>
      </trkpt>
      <trkpt lat="43.58019" lon="5.49642">
        <ele>348.60000610352</ele>
        <time>2012-12-16T11:50:27.000Z</time>
      </trkpt>
      <trkpt lat="43.58056" lon="5.49597">
        <ele>347.20001220703</ele>
        <time>2012-12-16T11:50:37.000Z</time>
      </trkpt>
      <trkpt lat="43.58091" lon="5.49556">
        <ele>345</ele>
        <time>2012-12-16T11:50:45.000Z</time>
      </trkpt>
      <trkpt lat="43.58127" lon="5.49513">
        <ele>343.60000610352</ele>
        <time>2012-12-16T11:50:53.000Z</time>
      </trkpt>
      <trkpt lat="43.58163" lon="5.49471">
        <ele>343.20001220703</ele>
        <time>2012-12-16T11:51:01.000Z</time>
      </trkpt>
      <trkpt lat="43.58202" lon="5.49427">
        <ele>343.20001220703</ele>
        <time>2012-12-16T11:51:09.000Z</time>
      </trkpt>
      <trkpt lat="43.58241" lon="5.49389">
        <ele>343.20001220703</ele>
        <time>2012-12-16T11:51:17.000Z</time>
      </trkpt>
      <trkpt lat="43.5828" lon="5.49352">
        <ele>343.20001220703</ele>
        <time>2012-12-16T11:51:25.000Z</time>
      </trkpt>
      <trkpt lat="43.58319" lon="5.49316">
        <ele>342.39999389648</ele>
        <time>2012-12-16T11:51:33.000Z</time>
      </trkpt>
      <trkpt lat="43.58359" lon="5.4928">
        <ele>341.20001220703</ele>
        <time>2012-12-16T11:51:41.000Z</time>
      </trkpt>
      <trkpt lat="43.58398" lon="5.49241">
        <ele>341.39999389648</ele>
        <time>2012-12-16T11:51:49.000Z</time>
      </trkpt>
      <trkpt lat="43.58434" lon="5.49198">
        <ele>342</ele>
        <time>2012-12-16T11:51:57.000Z</time>
      </trkpt>
      <trkpt lat="43.58472" lon="5.49152">
        <ele>342.20001220703</ele>
        <time>2012-12-16T11:52:05.000Z</time>
      </trkpt>
      <trkpt lat="43.58505" lon="5.49107">
        <ele>342</ele>
        <time>2012-12-16T11:52:13.000Z</time>
      </trkpt>
      <trkpt lat="43.58536" lon="5.49062">
        <ele>341</ele>
        <time>2012-12-16T11:52:21.000Z</time>
      </trkpt>
      <trkpt lat="43.58569" lon="5.49014">
        <ele>340</ele>
        <time>2012-12-16T11:52:29.000Z</time>
      </trkpt>
      <trkpt lat="43.586" lon="5.48969">
        <ele>339.20001220703</ele>
        <time>2012-12-16T11:52:37.000Z</time>
      </trkpt>
      <trkpt lat="43.58632" lon="5.48924">
        <ele>338.60000610352</ele>
        <time>2012-12-16T11:52:49.000Z</time>
      </trkpt>
      <trkpt lat="43.58676" lon="5.48915">
        <ele>339.39999389648</ele>
        <time>2012-12-16T11:53:23.000Z</time>
      </trkpt>
      <trkpt lat="43.58717" lon="5.48876">
        <ele>341</ele>
        <time>2012-12-16T11:53:35.000Z</time>
      </trkpt>
      <trkpt lat="43.58761" lon="5.48844">
        <ele>342.39999389648</ele>
        <time>2012-12-16T11:53:44.000Z</time>
      </trkpt>
      <trkpt lat="43.58803" lon="5.48818">
        <ele>342.39999389648</ele>
        <time>2012-12-16T11:53:52.000Z</time>
      </trkpt>
      <trkpt lat="43.58846" lon="5.4879">
        <ele>342.79998779297</ele>
        <time>2012-12-16T11:54:00.000Z</time>
      </trkpt>
      <trkpt lat="43.5889" lon="5.48772">
        <ele>345</ele>
        <time>2012-12-16T11:54:07.000Z</time>
      </trkpt>
      <trkpt lat="43.58938" lon="5.48764">
        <ele>347.79998779297</ele>
        <time>2012-12-16T11:54:14.000Z</time>
      </trkpt>
      <trkpt lat="43.5898" lon="5.48741">
        <ele>348.20001220703</ele>
        <time>2012-12-16T11:54:21.000Z</time>
      </trkpt>
      <trkpt lat="43.59021" lon="5.48703">
        <ele>346.60000610352</ele>
        <time>2012-12-16T11:54:28.000Z</time>
      </trkpt>
      <trkpt lat="43.59058" lon="5.48666">
        <ele>344.60000610352</ele>
        <time>2012-12-16T11:54:34.000Z</time>
      </trkpt>
      <trkpt lat="43.59093" lon="5.48626">
        <ele>344.39999389648</ele>
        <time>2012-12-16T11:54:40.000Z</time>
      </trkpt>
      <trkpt lat="43.59123" lon="5.48575">
        <ele>345</ele>
        <time>2012-12-16T11:54:46.000Z</time>
      </trkpt>
      <trkpt lat="43.59151" lon="5.48522">
        <ele>345.60000610352</ele>
        <time>2012-12-16T11:54:52.000Z</time>
      </trkpt>
      <trkpt lat="43.5919" lon="5.48484">
        <ele>345.60000610352</ele>
        <time>2012-12-16T11:54:58.000Z</time>
      </trkpt>
      <trkpt lat="43.59237" lon="5.48454">
        <ele>345.60000610352</ele>
        <time>2012-12-16T11:55:05.000Z</time>
      </trkpt>
      <trkpt lat="43.59282" lon="5.48421">
        <ele>344.60000610352</ele>
        <time>2012-12-16T11:55:12.000Z</time>
      </trkpt>
      <trkpt lat="43.59321" lon="5.48378">
        <ele>344.39999389648</ele>
        <time>2012-12-16T11:55:20.000Z</time>
      </trkpt>
      <trkpt lat="43.59353" lon="5.48333">
        <ele>344.79998779297</ele>
        <time>2012-12-16T11:55:28.000Z</time>
      </trkpt>
      <trkpt lat="43.59381" lon="5.48284">
        <ele>345.39999389648</ele>
        <time>2012-12-16T11:55:35.000Z</time>
      </trkpt>
      <trkpt lat="43.59414" lon="5.48237">
        <ele>347.20001220703</ele>
        <time>2012-12-16T11:55:42.000Z</time>
      </trkpt>
      <trkpt lat="43.59457" lon="5.48243">
        <ele>349</ele>
        <time>2012-12-16T11:55:49.000Z</time>
      </trkpt>
      <trkpt lat="43.59499" lon="5.48279">
        <ele>350.39999389648</ele>
        <time>2012-12-16T11:55:57.000Z</time>
      </trkpt>
      <trkpt lat="43.5954" lon="5.4832">
        <ele>353.39999389648</ele>
        <time>2012-12-16T11:56:04.000Z</time>
      </trkpt>
      <trkpt lat="43.59576" lon="5.48363">
        <ele>355.39999389648</ele>
        <time>2012-12-16T11:56:12.000Z</time>
      </trkpt>
      <trkpt lat="43.59613" lon="5.48401">
        <ele>356.20001220703</ele>
        <time>2012-12-16T11:56:20.000Z</time>
      </trkpt>
      <trkpt lat="43.59653" lon="5.48432">
        <ele>357.60000610352</ele>
        <time>2012-12-16T11:56:29.000Z</time>
      </trkpt>
      <trkpt lat="43.59695" lon="5.48463">
        <ele>358.20001220703</ele>
        <time>2012-12-16T11:56:38.000Z</time>
      </trkpt>
      <trkpt lat="43.59737" lon="5.48491">
        <ele>358.20001220703</ele>
        <time>2012-12-16T11:56:47.000Z</time>
      </trkpt>
      <trkpt lat="43.5978" lon="5.48507">
        <ele>358</ele>
        <time>2012-12-16T11:56:57.000Z</time>
      </trkpt>
      <trkpt lat="43.59783" lon="5.48561">
        <ele>356.79998779297</ele>
        <time>2012-12-16T11:57:18.000Z</time>
      </trkpt>
      <trkpt lat="43.59778" lon="5.48626">
        <ele>356.20001220703</ele>
        <time>2012-12-16T11:57:34.000Z</time>
      </trkpt>
      <trkpt lat="43.59766" lon="5.4869">
        <ele>357.39999389648</ele>
        <time>2012-12-16T11:57:48.000Z</time>
      </trkpt>
      <trkpt lat="43.59793" lon="5.48728">
        <ele>359</ele>
        <time>2012-12-16T11:58:03.000Z</time>
      </trkpt>
      <trkpt lat="43.59833" lon="5.48758">
        <ele>359.39999389648</ele>
        <time>2012-12-16T11:58:16.000Z</time>
      </trkpt>
      <trkpt lat="43.59868" lon="5.488">
        <ele>362.20001220703</ele>
        <time>2012-12-16T11:58:29.000Z</time>
      </trkpt>
      <trkpt lat="43.59911" lon="5.48816">
        <ele>364.20001220703</ele>
        <time>2012-12-16T11:58:45.000Z</time>
      </trkpt>
    </trkseg>
  </trk>
</gpx>